M I D A S
Marine Information and Data Acquisition System
Tripno 944 of the Zeeleeuw from 2005-05-19 07:03:27 to 2005-05-19 13:30:32
Back to CruiseResearch ActivitiesStationsMapUnderway DataData graphs

EquipmentUnitsComment
TimeDGPSUTC
LatitudeDGPSDM.mWGS84
LongitudeDGPSDM.mWGS84
TemperatureSBE03/SBE38deg celciusITS90
ConductivitySBE21S/mITS90
SalinitySBE21 Practical Salinity Units
ChlorophylAChelsea fluorimeterg/lCalibrated in Aceton
Missing or incorrect values are displayed as -999
Sea surface data collected by the RV Zeeleeuw from 2005-05-19 06:55:13 to 2005-05-19 13:41:00
                                                                                    Next 1000 lines
Time Latitude Longitude Temperature Conductivity Salinity ChlorophylA
2005-05-19 06:55:23 51°13.593 2°56.102 14.0082 2.882496 22.767487 12.871059
2005-05-19 06:55:29 51°13.591 2°56.105 13.9494 2.885443 22.799807 12.972187
2005-05-19 06:55:33 51°13.59 2°56.107 13.8237 2.885759 22.807017 12.736221
2005-05-19 06:55:39 51°13.588 2°56.112 13.7868 2.885759 22.807017 12.736221
2005-05-19 06:55:43 51°13.585 2°56.115 13.7302 2.884601 22.803193 12.736221
2005-05-19 06:55:49 51°13.582 2°56.121 13.6705 2.89039 22.869257 12.837349
2005-05-19 06:55:53 51°13.58 2°56.126 13.6458 2.906914 23.048964 13.241862
2005-05-19 06:55:59 51°13.576 2°56.132 13.6376 2.92649 23.257447 13.848631
2005-05-19 06:56:03 51°13.572 2°56.138 13.6206 2.944278 23.455235 14.219435
2005-05-19 06:56:09 51°13.568 2°56.145 13.5776 2.944278 23.455235 14.219435
2005-05-19 06:56:13 51°13.565 2°56.151 13.5499 2.965751 23.703637 14.859913
2005-05-19 06:56:19 51°13.561 2°56.158 13.5509 2.980909 23.888228 15.63523
2005-05-19 06:56:24 51°13.558 2°56.164 13.5548 2.991541 24.025519 16.073452
2005-05-19 06:56:29 51°13.554 2°56.17 13.5724 3.002173 24.154233 16.781349
2005-05-19 06:56:33 51°13.551 2°56.176 13.4922 3.011542 24.262958 17.152153
2005-05-19 06:56:39 51°13.548 2°56.185 13.4419 3.011542 24.262958 17.152153
2005-05-19 06:56:43 51°13.546 2°56.192 13.3813 3.018174 24.340805 17.455537
2005-05-19 06:56:49 51°13.545 2°56.201 13.3853 3.025543 24.426818 17.522956
2005-05-19 06:56:53 51°13.544 2°56.208 13.3849 3.024911 24.442179 17.792631
2005-05-19 06:56:59 51°13.543 2°56.216 13.4621 3.015122 24.36615 17.826341
2005-05-19 06:57:03 51°13.543 2°56.221 13.5001 3.012701 24.351878 17.758922
2005-05-19 06:57:09 51°13.544 2°56.226 13.4607 3.012701 24.351878 17.758922
2005-05-19 06:57:13 51°13.544 2°56.228 13.5071 3.013333 24.381894 17.927469
2005-05-19 06:57:19 51°13.545 2°56.231 13.5457 3.013333 24.412697 18.298272
2005-05-19 06:57:23 51°13.545 2°56.232 13.5527 3.004702 24.363932 18.365691
2005-05-19 06:57:29 51°13.545 2°56.232 13.5888 2.979018 24.148957 18.331982
2005-05-19 06:57:33 51°13.545 2°56.231 13.6534 2.922813 23.637336 18.669076
2005-05-19 06:57:39 51°13.545 2°56.23 13.641 2.922813 23.637336 18.669076
2005-05-19 06:57:43 51°13.545 2°56.228 13.648 2.833885 22.834694 18.702785
2005-05-19 06:57:49 51°13.544 2°56.225 13.6514 2.713727 21.765462 18.97246
2005-05-19 06:57:54 51°13.542 2°56.222 13.6027 2.620945 20.932909 19.107298
2005-05-19 06:57:59 51°13.541 2°56.219 13.6006 2.496213 19.829566 19.747777
2005-05-19 06:58:04 51°13.54 2°56.216 13.5141 2.408207 19.051232 20.185999
2005-05-19 06:58:09 51°13.54 2°56.214 13.4385 2.408207 19.051232 20.185999
2005-05-19 06:58:14 51°13.54 2°56.214 13.4003 2.331887 18.37413 20.455674
2005-05-19 06:58:19 51°13.541 2°56.215 13.3964 2.265775 17.794181 21.028734
2005-05-19 06:58:23 51°13.542 2°56.216 13.4087 2.222582 17.420398 21.2647
2005-05-19 06:58:29 51°13.545 2°56.217 13.4021 2.229833 17.486736 21.433247
2005-05-19 06:58:34 51°13.546 2°56.218 13.473 2.262517 17.778605 21.096153
2005-05-19 06:58:39 51°13.546 2°56.218 13.386 2.262517 17.778605 21.096153
2005-05-19 06:58:43 51°13.546 2°56.218 13.4272 2.353331 18.577376 20.893896
2005-05-19 06:58:49 51°13.546 2°56.218 13.4138 2.439539 19.351241 19.848905
2005-05-19 06:58:54 51°13.545 2°56.217 13.3932 2.521242 20.087124 19.54552
2005-05-19 06:58:59 51°13.543 2°56.217 13.479 2.583712 20.65132 19.242136
2005-05-19 06:59:04 51°13.541 2°56.216 13.4451 2.61169 20.901151 18.938751
2005-05-19 06:59:09 51°13.539 2°56.216 13.4064 2.61169 20.901151 18.938751
2005-05-19 06:59:14 51°13.537 2°56.215 13.3961 2.6119 20.90174 18.635366
2005-05-19 06:59:19 51°13.535 2°56.214 13.3975 2.583397 20.656846 18.601657
2005-05-19 06:59:24 51°13.534 2°56.214 13.3642 2.552371 20.383097 18.770204
2005-05-19 06:59:29 51°13.534 2°56.214 13.3127 2.522294 20.123356 18.938751
2005-05-19 06:59:34 51°13.535 2°56.213 13.2894 2.511777 20.02491 18.871332
2005-05-19 06:59:39 51°13.538 2°56.212 13.2644 2.511777 20.02491 18.871332
2005-05-19 06:59:44 51°13.54 2°56.211 13.3195 2.512514 20.029739 18.905042
2005-05-19 06:59:49 51°13.542 2°56.21 13.3642 2.547954 20.34848 18.601657
2005-05-19 06:59:54 51°13.542 2°56.209 13.4484 2.592652 20.741018 18.43311
2005-05-19 06:59:59 51°13.543 2°56.21 13.4589 2.643035 21.197666 18.3994
2005-05-19 07:00:04 51°13.542 2°56.21 13.4716 2.671122 21.465978 17.758922
2005-05-19 07:00:09 51°13.541 2°56.211 13.5029 2.671122 21.465978 17.758922
2005-05-19 07:00:13 51°13.541 2°56.214 13.4775 2.692583 21.670837 17.792631
2005-05-19 07:00:19 51°13.538 2°56.217 13.4828 2.682273 21.590111 17.556665
2005-05-19 07:00:24 51°13.536 2°56.219 13.3797 2.633885 21.154076 18.028597
2005-05-19 07:00:29 51°13.533 2°56.223 13.3839 2.555947 20.448936 18.028597
2005-05-19 07:00:34 51°13.531 2°56.226 13.3034 2.459096 19.579382 18.770204
2005-05-19 07:00:39 51°13.529 2°56.228 13.2809 2.459096 19.579382 18.770204
2005-05-19 07:00:44 51°13.528 2°56.23 13.2576 2.390125 18.959771 19.343264
2005-05-19 07:00:49 51°13.527 2°56.23 13.2178 2.354383 18.640869 19.781486
2005-05-19 07:00:54 51°13.528 2°56.229 13.2206 2.348496 18.587605 19.882614
2005-05-19 07:00:59 51°13.53 2°56.226 13.2289 2.411993 19.152966 19.815195
2005-05-19 07:01:03 51°13.531 2°56.223 13.3103 2.500631 19.940276 19.309554
2005-05-19 07:01:09 51°13.534 2°56.217 13.3342 2.500631 19.940276 19.309554
2005-05-19 07:01:15 51°13.538 2°56.209 13.3955 2.581294 20.673269 18.803913
2005-05-19 07:01:19 51°13.541 2°56.202 13.4309 2.645981 21.268526 18.197144
2005-05-19 07:01:23 51°13.543 2°56.194 13.4486 2.695213 21.720801 17.994888
2005-05-19 07:01:29 51°13.546 2°56.182 13.4158 2.728984 22.033939 17.522956
2005-05-19 07:01:33 51°13.548 2°56.173 13.4062 2.707943 21.852987 17.253281
2005-05-19 07:01:39 51°13.552 2°56.158 13.4005 2.707943 21.852987 17.253281
2005-05-19 07:01:43 51°13.555 2°56.147 13.3893 2.628731 21.138859 17.657794
2005-05-19 07:01:49 51°13.558 2°56.131 13.4342 2.545115 20.384214 17.961178
2005-05-19 07:01:54 51°13.561 2°56.119 13.4841 2.46509 19.659355 18.331982
2005-05-19 07:01:59 51°13.564 2°56.105 13.5403 2.391282 18.996889 18.871332
2005-05-19 07:02:03 51°13.567 2°56.093 13.5019 2.35186 18.646674 18.97246
2005-05-19 07:02:09 51°13.571 2°56.078 13.5256 2.35186 18.646674 18.97246
2005-05-19 07:02:13 51°13.574 2°56.068 13.5035 2.365947 18.770515 19.343264
2005-05-19 07:02:19 51°13.578 2°56.052 13.514 2.433862 19.366274 18.837623
2005-05-19 07:02:24 51°13.582 2°56.04 13.4793 2.458465 19.579777 18.331982
2005-05-19 07:02:29 51°13.585 2°56.028 13.5459 2.4367 19.371564 18.534238
2005-05-19 07:02:33 51°13.589 2°56.019 13.4547 2.382556 18.881509 18.567947
2005-05-19 07:02:39 51°13.593 2°56.005 13.3915 2.382556 18.881509 18.567947
2005-05-19 07:02:44 51°13.598 2°55.992 13.3917 2.318013 18.316666 18.770204
2005-05-19 07:02:49 51°13.601 2°55.982 13.3526 2.251167 17.733474 18.905042
2005-05-19 07:02:54 51°13.605 2°55.971 13.325 2.223319 17.492297 19.208426
2005-05-19 07:02:59 51°13.61 2°55.959 13.3002 2.242445 17.658335 19.141007
2005-05-19 07:03:04 51°13.614 2°55.948 13.282 2.291105 18.077942 18.803913
2005-05-19 07:03:09 51°13.618 2°55.937 13.2855 2.291105 18.077942 18.803913
2005-05-19 07:03:14 51°13.622 2°55.927 13.2722 2.342715 18.53528 18.601657
2005-05-19 07:03:19 51°13.626 2°55.917 13.234 2.399903 19.050484 18.43311
2005-05-19 07:03:24 51°13.631 2°55.905 13.2334 2.463618 19.620032 18.129725
2005-05-19 07:03:29 51°13.636 2°55.895 13.234 2.510726 20.050744 18.062306
2005-05-19 07:03:34 51°13.641 2°55.884 13.2462 2.547639 20.392832 17.927469
2005-05-19 07:03:39 51°13.647 2°55.873 13.2428 2.547639 20.392832 17.927469
2005-05-19 07:03:44 51°13.652 2°55.863 13.2574 2.587289 20.755642 18.197144
2005-05-19 07:03:49 51°13.658 2°55.852 13.251 2.614005 20.99953 17.725212
2005-05-19 07:03:54 51°13.664 2°55.84 13.2044 2.646297 21.298792 17.657794
2005-05-19 07:03:59 51°13.67 2°55.829 13.181 2.659446 21.426325 17.691503
2005-05-19 07:04:03 51°13.675 2°55.819 13.1647 2.659341 21.42929 17.489247
2005-05-19 07:04:09 51°13.682 2°55.806 13.1718 2.659341 21.42929 17.489247
2005-05-19 07:04:14 51°13.688 2°55.793 13.1579 2.659762 21.433881 17.388118
2005-05-19 07:04:19 51°13.694 2°55.78 13.1434 2.662918 21.462256 17.489247
2005-05-19 07:04:24 51°13.701 2°55.767 13.1039 2.666705 21.497965 17.354409
2005-05-19 07:04:29 51°13.708 2°55.754 13.0988 2.6747 21.574024 17.28699
2005-05-19 07:04:34 51°13.714 2°55.743 13.1302 2.698791 21.798237 17.152153
2005-05-19 07:04:39 51°13.722 2°55.73 13.1163 2.698791 21.798237 17.152153
2005-05-19 07:04:43 51°13.729 2°55.72 13.1093 2.724776 22.039765 17.28699
2005-05-19 07:04:49 51°13.738 2°55.707 13.1317 2.758128 22.343826 17.388118
2005-05-19 07:04:53 51°13.746 2°55.699 13.121 2.79043 22.639181 17.388118
2005-05-19 07:04:59 51°13.757 2°55.687 13.0928 2.825786 22.969924 17.590375
2005-05-19 07:05:03 51°13.765 2°55.679 13.1178 2.841886 23.12387 17.489247
2005-05-19 07:05:08 51°13.775 2°55.669 13.0929 2.841886 23.12387 17.489247
2005-05-19 07:05:14 51°13.786 2°55.659 13.1085 2.854409 23.233716 17.691503
2005-05-19 07:05:19 51°13.796 2°55.65 13.1094 2.865564 23.336549 17.691503
2005-05-19 07:05:23 51°13.806 2°55.643 13.0921 2.875772 23.429536 17.893759
2005-05-19 07:05:29 51°13.817 2°55.633 13.0994 2.889032 23.543767 17.691503
2005-05-19 07:05:33 51°13.827 2°55.626 13.111 2.897241 23.628488 17.624084
2005-05-19 07:05:39 51°13.839 2°55.617 13.1139 2.897241 23.628488 17.624084
2005-05-19 07:05:44 51°13.85 2°55.61 13.1422 2.894926 23.609127 17.421828
2005-05-19 07:05:49 51°13.862 2°55.602 13.1057 2.883034 23.505191 17.489247
2005-05-19 07:05:53 51°13.872 2°55.596 13.1102 2.877877 23.459846 17.522956
2005-05-19 07:05:59 51°13.885 2°55.588 13.098 2.861565 23.316304 17.28699
2005-05-19 07:06:04 51°13.897 2°55.58 13.0899 2.839256 23.115783 17.388118
2005-05-19 07:06:09 51°13.909 2°55.572 13.0546 2.839256 23.115783 17.388118
2005-05-19 07:06:13 51°13.919 2°55.566 13.0242 2.816842 22.911289 17.455537
2005-05-19 07:06:18 51°13.932 2°55.557 13.0323 2.796639 22.728221 17.624084
2005-05-19 07:06:24 51°13.947 2°55.548 13.009 2.786432 22.633761 17.556665
2005-05-19 07:06:29 51°13.958 2°55.541 12.9626 2.79706 22.732907 17.691503
2005-05-19 07:06:34 51°13.97 2°55.532 12.9591 2.816105 22.90795 17.489247
2005-05-19 07:06:38 51°13.981 2°55.525 12.9554 2.816105 22.90795 17.489247
2005-05-19 07:06:43 51°13.993 2°55.517 12.9389 2.845254 23.177548 17.522956
2005-05-19 07:06:49 51°14.006 2°55.508 12.9126 2.875983 23.46571 17.657794
2005-05-19 07:06:53 51°14.016 2°55.501 12.9086 2.908293 23.767353 17.556665
2005-05-19 07:06:59 51°14.03 2°55.491 12.9069 2.940078 24.064004 17.489247
2005-05-19 07:07:03 51°14.041 2°55.484 12.9119 2.979128 24.434954 17.253281
2005-05-19 07:07:09 51°14.054 2°55.475 12.9015 2.979128 24.434954 17.253281
2005-05-19 07:07:13 51°14.065 2°55.469 12.8894 3.013549 24.760594 17.354409
2005-05-19 07:07:19 51°14.08 2°55.458 12.8886 3.038182 24.994654 17.152153
2005-05-19 07:07:24 51°14.09 2°55.45 12.8773 3.065237 25.252219 17.017315
2005-05-19 07:07:29 51°14.102 2°55.441 12.8833 3.078397 25.383299 16.781349
2005-05-19 07:07:33 51°14.113 2°55.433 12.8816 3.089767 25.492016 16.511674
2005-05-19 07:07:39 51°14.129 2°55.422 12.8785 3.089767 25.492016 16.511674
2005-05-19 07:07:44 51°14.142 2°55.413 12.8655 3.098401 25.575885 16.309418
2005-05-19 07:07:50 51°14.156 2°55.401 12.8611 3.11135 25.700238 16.208289
2005-05-19 07:07:53 51°14.166 2°55.393 12.8552 3.117141 25.758326 16.309418
2005-05-19 07:07:59 51°14.182 2°55.38 12.8534 3.12788 25.861634 16.006033
2005-05-19 07:08:04 51°14.194 2°55.369 12.8588 3.136409 25.942708 15.972324
2005-05-19 07:08:09 51°14.207 2°55.357 12.8745 3.136409 25.942708 15.972324
2005-05-19 07:08:13 51°14.217 2°55.346 12.8683 3.138304 25.961085 15.938614
2005-05-19 07:08:19 51°14.233 2°55.327 12.8687 3.148517 26.05869 15.837486
2005-05-19 07:08:23 51°14.243 2°55.314 12.8591 3.149886 26.07494 15.837486
2005-05-19 07:08:29 51°14.255 2°55.295 12.8533 3.146306 26.046469 15.534101
2005-05-19 07:08:34 51°14.266 2°55.277 12.8439 3.142095 26.012218 15.60152
2005-05-19 07:08:39 51°14.276 2°55.257 12.8336 3.142095 26.012218 15.60152
2005-05-19 07:08:43 51°14.286 2°55.24 12.8418 3.129355 25.89575 15.500392
2005-05-19 07:08:49 51°14.297 2°55.218 12.8273 3.109982 25.716668 15.500392
2005-05-19 07:08:53 51°14.305 2°55.202 12.8159 3.10377 25.660483 15.399264
2005-05-19 07:08:59 51°14.317 2°55.177 12.8339 3.106718 25.688972 15.298136
2005-05-19 07:09:03 51°14.326 2°55.158 12.84 3.109245 25.718361 15.129589
2005-05-19 07:09:09 51°14.337 2°55.134 12.8257 3.109245 25.718361 15.129589
2005-05-19 07:09:13 51°14.346 2°55.115 12.8216 3.116405 25.787456 15.331845
2005-05-19 07:09:19 51°14.357 2°55.091 12.8426 3.114299 25.771911 15.095879
2005-05-19 07:09:24 51°14.367 2°55.07 12.8254 3.113036 25.763004 15.06217
2005-05-19 07:09:29 51°14.378 2°55.051 12.8423 3.115247 25.790078 15.02846
2005-05-19 07:09:34 51°14.391 2°55.033 12.7868 3.117247 25.808366 14.792494
2005-05-19 07:09:39 51°14.404 2°55.016 12.7796 3.117247 25.808366 14.792494
2005-05-19 07:09:43 51°14.417 2°55.001 12.7229 3.115773 25.792777 14.590238
2005-05-19 07:09:49 51°14.432 2°54.981 12.692 3.115457 25.792531 14.623947
2005-05-19 07:09:54 51°14.445 2°54.962 12.6582 3.114931 25.785605 14.387982
2005-05-19 07:09:59 51°14.459 2°54.943 12.6318 3.113667 25.774585 13.949759
2005-05-19 07:10:03 51°14.471 2°54.926 12.6045 3.117458 25.81082 13.781212
2005-05-19 07:10:09 51°14.486 2°54.904 12.5734 3.117458 25.81082 13.781212
2005-05-19 07:10:13 51°14.498 2°54.886 12.5494 3.126934 25.912875 13.477828
2005-05-19 07:10:19 51°14.514 2°54.862 12.5287 3.160627 26.23762 13.511537
2005-05-19 07:10:23 51°14.524 2°54.845 12.526 3.193479 26.559875 13.410409
2005-05-19 07:10:29 51°14.538 2°54.822 12.5262 3.234969 26.96877 13.039606
2005-05-19 07:10:34 51°14.55 2°54.801 12.5057 3.28257 27.435145 12.702512
2005-05-19 07:10:39 51°14.563 2°54.78 12.4845 3.28257 27.435145 12.702512
2005-05-19 07:10:44 51°14.575 2°54.758 12.4839 3.327541 27.876691 12.668802
2005-05-19 07:10:49 51°14.587 2°54.735 12.4834 3.369461 28.293247 12.163161
2005-05-19 07:10:54 51°14.598 2°54.712 12.4819 3.413701 28.725259 11.488973
2005-05-19 07:10:59 51°14.611 2°54.687 12.4757 3.438455 28.975982 11.08446
2005-05-19 07:11:03 51°14.62 2°54.669 12.477 3.462579 29.21051 10.882204
2005-05-19 07:11:09 51°14.633 2°54.644 12.4706 3.462579 29.21051 10.882204
2005-05-19 07:11:14 51°14.644 2°54.62 12.4608 3.482805 29.410141 10.646238
2005-05-19 07:11:19 51°14.656 2°54.598 12.4554 3.501874 29.602898 10.005759
2005-05-19 07:11:23 51°14.666 2°54.577 12.4482 3.510934 29.694033 9.837212
2005-05-19 07:11:29 51°14.679 2°54.552 12.4341 3.517255 29.756438 9.466409
2005-05-19 07:11:34 51°14.691 2°54.528 12.4398 3.521153 29.797974 9.163024
2005-05-19 07:11:39 51°14.701 2°54.505 12.4268 3.521153 29.797974 9.163024
2005-05-19 07:11:43 51°14.712 2°54.484 12.4189 3.528633 29.87318 8.927059
2005-05-19 07:11:49 51°14.723 2°54.458 12.4156 3.529792 29.889026 8.82593
2005-05-19 07:11:53 51°14.731 2°54.438 12.4056 3.537589 29.969137 8.623674
2005-05-19 07:11:59 51°14.744 2°54.409 12.4059 3.538432 29.984527 8.556255
2005-05-19 07:12:03 51°14.752 2°54.387 12.3965 3.536641 29.975149 8.387708
2005-05-19 07:12:09 51°14.764 2°54.36 12.3809 3.536641 29.975149 8.387708
2005-05-19 07:12:13 51°14.773 2°54.338 12.3813 3.544753 30.055839 8.28658
2005-05-19 07:12:19 51°14.784 2°54.312 12.3641 3.544226 30.058996 8.219161
2005-05-19 07:12:23 51°14.793 2°54.29 12.3356 3.541277 30.037467 8.118033
2005-05-19 07:12:29 51°14.804 2°54.262 12.3218 3.545702 30.086005 8.016905
2005-05-19 07:12:34 51°14.813 2°54.237 12.3103 3.5437 30.072152 8.050614
2005-05-19 07:12:39 51°14.822 2°54.209 12.3033 3.5437 30.072152 8.050614
2005-05-19 07:12:44 51°14.83 2°54.186 12.2992 3.545702 30.097889 7.646101
2005-05-19 07:12:49 51°14.838 2°54.16 12.2786 3.551286 30.158032 8.016905
2005-05-19 07:12:53 51°14.845 2°54.137 12.2823 3.547493 30.131053 7.915777
2005-05-19 07:12:59 51°14.854 2°54.109 12.2668 3.549706 30.166348 7.882067
2005-05-19 07:13:03 51°14.861 2°54.085 12.2588 3.551813 30.201944 7.882067
2005-05-19 07:13:09 51°14.87 2°54.057 12.26 3.551813 30.201944 7.882067
2005-05-19 07:13:14 51°14.878 2°54.03 12.2574 3.555079 30.247267 8.050614
2005-05-19 07:13:19 51°14.886 2°54.005 12.2533 3.553605 30.24342 8.252871
2005-05-19 07:13:23 51°14.893 2°53.981 12.2528 3.552235 30.240567 8.050614
2005-05-19 07:13:29 51°14.902 2°53.953 12.2531 3.552446 30.250761 8.118033
2005-05-19 07:13:33 51°14.91 2°53.93 12.2495 3.557819 30.308516 7.949486
2005-05-19 07:13:39 51°14.919 2°53.901 12.2395 3.557819 30.308516 7.949486
2005-05-19 07:13:43 51°14.926 2°53.878 12.2365 3.554132 30.281859 7.983195
2005-05-19 07:13:49 51°14.935 2°53.849 12.2307 3.558136 30.324162 8.118033
2005-05-19 07:13:52 51°14.94 2°53.831 12.2362 3.556766 30.314368 7.915777
2005-05-19 07:13:59 51°14.952 2°53.795 12.238 3.558873 30.338741 7.915777
2005-05-19 07:14:03 51°14.958 2°53.774 12.2268 3.557187 30.325954 8.016905
2005-05-19 07:14:08 51°14.967 2°53.748 12.2248 3.557187 30.325954 8.016905
2005-05-19 07:14:13 51°14.974 2°53.724 12.2216 3.557187 30.329755 7.814648
2005-05-19 07:14:19 51°14.985 2°53.693 12.2159 3.557293 30.333921 7.814648
2005-05-19 07:14:23 51°14.992 2°53.67 12.2139 3.559716 30.360669 7.780939
2005-05-19 07:14:28 51°15 2°53.644 12.2088 3.558347 30.352139 7.780939
2005-05-19 07:14:33 51°15.009 2°53.618 12.214 3.560665 30.37536 7.578683
2005-05-19 07:14:39 51°15.018 2°53.59 12.2102 3.560665 30.37536 7.578683
2005-05-19 07:14:43 51°15.025 2°53.566 12.2055 3.560138 30.37164 7.679811
2005-05-19 07:14:49 51°15.033 2°53.537 12.2068 3.559822 30.372456 7.949486
2005-05-19 07:14:54 51°15.042 2°53.508 12.2069 3.55919 30.369642 7.780939
2005-05-19 07:14:59 51°15.048 2°53.484 12.1958 3.561402 30.395051 7.578683
2005-05-19 07:15:03 51°15.055 2°53.46 12.1945 3.560454 30.389879 7.814648
2005-05-19 07:15:09 51°15.062 2°53.43 12.1983 3.560454 30.389879 7.814648
2005-05-19 07:15:14 51°15.069 2°53.404 12.1973 3.560138 30.388155 7.612392
2005-05-19 07:15:19 51°15.076 2°53.374 12.1962 3.558663 30.376083 7.71352
2005-05-19 07:15:23 51°15.081 2°53.352 12.2009 3.558663 30.37926 7.814648
2005-05-19 07:15:29 51°15.087 2°53.323 12.1962 3.559611 30.389518 7.679811
2005-05-19 07:15:34 51°15.093 2°53.295 12.1971 3.556872 30.366732 7.71352
2005-05-19 07:15:39 51°15.1 2°53.265 12.1996 3.556872 30.366732 7.71352
2005-05-19 07:15:44 51°15.105 2°53.241 12.1977 3.560243 30.399962 7.612392
2005-05-19 07:15:49 51°15.111 2°53.213 12.2009 3.564247 30.440468 7.578683
2005-05-19 07:15:54 51°15.117 2°53.186 12.202 3.564458 30.443103 7.578683
2005-05-19 07:15:59 51°15.123 2°53.159 12.2021 3.564774 30.446738 7.477554
2005-05-19 07:16:04 51°15.129 2°53.129 12.2052 3.564879 30.4471 7.443845
2005-05-19 07:16:09 51°15.135 2°53.104 12.2052 3.564879 30.4471 7.443845
2005-05-19 07:16:14 51°15.141 2°53.077 12.2016 3.565195 30.450097 7.578683
2005-05-19 07:16:19 51°15.147 2°53.049 12.2023 3.565617 30.454731 7.309007
2005-05-19 07:16:24 51°15.153 2°53.022 12.2029 3.565933 30.456454 7.241589
2005-05-19 07:16:29 51°15.159 2°52.995 12.2081 3.566249 30.459451 7.241589
2005-05-19 07:16:33 51°15.164 2°52.971 12.2032 3.566776 30.46381 7.14046
2005-05-19 07:16:39 51°15.171 2°52.94 12.209 3.566776 30.46381 7.14046
2005-05-19 07:16:43 51°15.176 2°52.916 12.2094 3.567197 30.465894 7.14046
2005-05-19 07:16:49 51°15.182 2°52.886 12.2106 3.567829 30.473164 7.073042
2005-05-19 07:16:54 51°15.187 2°52.855 12.2131 3.568462 30.478522 7.14046
2005-05-19 07:16:59 51°15.192 2°52.828 12.2145 3.568988 30.484156 6.971913
2005-05-19 07:17:03 51°15.196 2°52.806 12.2147 3.56941 30.486877 7.005623
2005-05-19 07:17:09 51°15.202 2°52.775 12.2134 3.56941 30.486877 7.005623
2005-05-19 07:17:13 51°15.206 2°52.753 12.2134 3.569937 30.491235 6.938204
2005-05-19 07:17:19 51°15.212 2°52.72 12.2152 3.570463 30.494955 6.904494
2005-05-19 07:17:23 51°15.216 2°52.695 12.217 3.571095 30.50095 7.106751
2005-05-19 07:17:29 51°15.221 2°52.664 12.2169 3.571412 30.502034 6.837076
2005-05-19 07:17:34 51°15.225 2°52.637 12.2175 3.571728 30.503755 7.106751
2005-05-19 07:17:39 51°15.231 2°52.606 12.2191 3.571728 30.503755 7.106751
2005-05-19 07:17:43 51°15.234 2°52.584 12.2156 3.57257 30.510472 7.005623
2005-05-19 07:17:48 51°15.239 2°52.557 12.2179 3.573203 30.517105 6.904494
2005-05-19 07:17:53 51°15.244 2°52.529 12.2177 3.573624 30.520463 6.904494
2005-05-19 07:17:59 51°15.25 2°52.496 12.2126 3.57394 30.523461 6.870785
2005-05-19 07:18:04 51°15.255 2°52.471 12.214 3.574151 30.522905 6.971913
2005-05-19 07:18:09 51°15.26 2°52.443 12.2107 3.574151 30.522905 6.971913
2005-05-19 07:18:14 51°15.264 2°52.416 12.2079 3.574572 30.527541 6.971913
2005-05-19 07:18:19 51°15.269 2°52.388 12.2072 3.575099 30.531259 6.803366
2005-05-19 07:18:23 51°15.273 2°52.363 12.2083 3.575626 30.536894 7.039332
2005-05-19 07:18:29 51°15.279 2°52.333 12.2094 3.575942 30.541169 6.735947
2005-05-19 07:18:33 51°15.282 2°52.311 12.209 3.576469 30.545527 6.735947
2005-05-19 07:18:39 51°15.288 2°52.278 12.2089 3.576469 30.545527 6.735947
2005-05-19 07:18:43 51°15.292 2°52.254 12.2125 3.576574 30.547804 6.904494
2005-05-19 07:18:49 51°15.297 2°52.223 12.2052 3.57689 30.553358 6.837076
2005-05-19 07:18:54 51°15.301 2°52.195 12.2042 3.577101 30.556636 6.803366
2005-05-19 07:18:59 51°15.305 2°52.167 12.2083 3.577101 30.557275 7.106751
2005-05-19 07:19:03 51°15.309 2°52.142 12.2012 3.576996 30.556275 6.971913
2005-05-19 07:19:09 51°15.313 2°52.112 12.2012 3.576996 30.556275 6.971913
2005-05-19 07:19:13 51°15.316 2°52.089 12.1952 3.576996 30.556275 6.533691
2005-05-19 07:19:19 51°15.32 2°52.054 12.1965 3.57689 30.555915 6.803366
2005-05-19 07:19:23 51°15.323 2°52.031 12.1941 3.577312 30.559913 6.803366
2005-05-19 07:19:28 51°15.326 2°52.003 12.2001 3.577733 30.56583 6.60111
2005-05-19 07:19:33 51°15.329 2°51.978 12.1981 3.578049 30.569468 6.837076
2005-05-19 07:19:39 51°15.333 2°51.942 12.1893 3.578049 30.569468 6.837076
2005-05-19 07:19:43 51°15.336 2°51.919 12.1896 3.578365 30.573747 6.769657
2005-05-19 07:19:49 51°15.339 2°51.888 12.1901 3.578576 30.578946 6.466272
2005-05-19 07:19:53 51°15.342 2°51.863 12.1891 3.578892 30.583865 6.735947
2005-05-19 07:19:59 51°15.346 2°51.833 12.1846 3.578892 30.585146 6.735947
2005-05-19 07:20:04 51°15.349 2°51.804 12.1855 3.578892 30.584505 6.533691
2005-05-19 07:20:09 51°15.353 2°51.776 12.1854 3.578892 30.584505 6.533691
2005-05-19 07:20:13 51°15.355 2°51.751 12.1833 3.578892 30.585146 6.5674
2005-05-19 07:20:19 51°15.36 2°51.721 12.1809 3.579208 30.590707 6.466272
2005-05-19 07:20:24 51°15.363 2°51.693 12.1828 3.579314 30.592987 6.499982
2005-05-19 07:20:28 51°15.366 2°51.668 12.1808 3.579314 30.593628 6.331435
2005-05-19 07:20:33 51°15.369 2°51.64 12.1834 3.579314 30.59619 6.297725
2005-05-19 07:20:39 51°15.373 2°51.609 12.1773 3.579314 30.59619 6.297725
2005-05-19 07:20:44 51°15.376 2°51.582 12.1773 3.579314 30.597471 6.499982
2005-05-19 07:20:48 51°15.379 2°51.557 12.1698 3.579209 30.597112 6.466272
2005-05-19 07:20:53 51°15.381 2°51.531 12.1723 3.579103 30.596752 6.297725
2005-05-19 07:20:59 51°15.382 2°51.498 12.1652 3.579103 30.598674 6.398853
2005-05-19 07:21:03 51°15.382 2°51.473 12.17 3.579209 30.598393 6.331435
2005-05-19 07:21:09 51°15.382 2°51.442 12.1688 3.579209 30.598393 6.331435
2005-05-19 07:21:13 51°15.381 2°51.419 12.1578 3.578893 30.597314 6.196597
2005-05-19 07:21:19 51°15.38 2°51.383 12.1607 3.579314 30.603238 6.264016
2005-05-19 07:21:23 51°15.379 2°51.36 12.1575 3.578682 30.60044 6.095469
2005-05-19 07:21:27 51°15.379 2°51.338 12.1606 3.578893 30.606287 6.095469
2005-05-19 07:21:34 51°15.377 2°51.302 12.1475 3.578787 30.608492 6.095469
2005-05-19 07:21:39 51°15.376 2°51.274 12.1503 3.578787 30.608492 6.095469
2005-05-19 07:21:43 51°15.375 2°51.249 12.1507 3.578577 30.605209 6.061759
2005-05-19 07:21:49 51°15.375 2°51.218 12.1489 3.578682 30.608133 6.02805
2005-05-19 07:21:53 51°15.374 2°51.196 12.1427 3.579103 30.615343 6.02805
2005-05-19 07:21:59 51°15.374 2°51.162 12.1386 3.57942 30.619629 5.994341
2005-05-19 07:22:03 51°15.374 2°51.136 12.1348 3.579314 30.621194 5.994341
2005-05-19 07:22:09 51°15.374 2°51.105 12.1367 3.579314 30.621194 5.994341
2005-05-19 07:22:13 51°15.373 2°51.08 12.1392 3.579841 30.629409 6.061759
2005-05-19 07:22:19 51°15.373 2°51.049 12.1309 3.580052 30.633979 6.162888
2005-05-19 07:22:24 51°15.373 2°51.021 12.1331 3.579841 30.631335 6.162888
2005-05-19 07:22:29 51°15.373 2°50.993 12.1349 3.580684 30.641914 6.02805
2005-05-19 07:22:34 51°15.373 2°50.965 12.134 3.581422 30.652136 6.196597
2005-05-19 07:22:39 51°15.373 2°50.934 12.1308 3.581422 30.652136 6.196597
2005-05-19 07:22:44 51°15.373 2°50.908 12.1373 3.582265 30.664005 6.162888
2005-05-19 07:22:49 51°15.373 2°50.88 12.132 3.582581 30.668296 6.499982
2005-05-19 07:22:53 51°15.373 2°50.858 12.1329 3.583108 30.675877 6.230306
2005-05-19 07:22:59 51°15.374 2°50.824 12.1347 3.583318 30.678524 6.230306
2005-05-19 07:23:03 51°15.374 2°50.799 12.1335 3.583424 30.68017 6.196597
2005-05-19 07:23:08 51°15.374 2°50.771 12.1364 3.583424 30.68017 6.196597
2005-05-19 07:23:14 51°15.375 2°50.737 12.1378 3.583634 30.682173 6.297725
2005-05-19 07:23:19 51°15.374 2°50.712 12.1361 3.58395 30.685822 6.061759
2005-05-19 07:23:24 51°15.375 2°50.683 12.1395 3.583634 30.682817 6.061759
2005-05-19 07:23:29 51°15.375 2°50.653 12.1415 3.583845 30.684177 6.230306
2005-05-19 07:23:33 51°15.375 2°50.63 12.1454 3.58374 30.683175 5.994341
2005-05-19 07:23:39 51°15.375 2°50.596 12.1437 3.58374 30.683175 5.994341
2005-05-19 07:23:43 51°15.375 2°50.574 12.148 3.58395 30.685822 5.825794
2005-05-19 07:23:48 51°15.375 2°50.549 12.1517 3.584056 30.686181 5.994341
2005-05-19 07:23:53 51°15.374 2°50.521 12.1541 3.584161 30.686539 5.690956
2005-05-19 07:23:59 51°15.374 2°50.487 12.1583 3.584267 30.686254 5.657247
2005-05-19 07:24:04 51°15.374 2°50.459 12.1583 3.584583 30.687972 5.926922
2005-05-19 07:24:09 51°15.373 2°50.432 12.1628 3.584583 30.687972 5.926922
2005-05-19 07:24:14 51°15.373 2°50.404 12.1622 3.584793 30.688045 5.589828
2005-05-19 07:24:19 51°15.372 2°50.373 12.1619 3.584899 30.68776 5.353862
2005-05-19 07:24:23 51°15.372 2°50.351 12.1646 3.585109 30.687833 5.45499
2005-05-19 07:24:29 51°15.371 2°50.32 12.1673 3.585109 30.68526 5.286443
2005-05-19 07:24:33 51°15.37 2°50.295 12.1674 3.58532 30.683403 5.320153
2005-05-19 07:24:39 51°15.37 2°50.262 12.1644 3.58532 30.683403 5.320153
2005-05-19 07:24:44 51°15.37 2°50.237 12.1718 3.585741 30.686123 5.252734
2005-05-19 07:24:49 51°15.369 2°50.209 12.1633 3.585741 30.684193 5.252734
2005-05-19 07:24:54 51°15.369 2°50.181 12.1646 3.586374 30.689558 5.252734
2005-05-19 07:24:59 51°15.369 2°50.153 12.1697 3.586268 30.686628 5.117896
2005-05-19 07:25:03 51°15.368 2°50.128 12.1691 3.587216 30.694353 5.084187
2005-05-19 07:25:09 51°15.368 2°50.097 12.1701 3.587216 30.694353 5.084187
2005-05-19 07:25:14 51°15.367 2°50.07 12.174 3.587743 30.698073 5.084187
2005-05-19 07:25:19 51°15.367 2°50.039 12.1754 3.588165 30.701435 5.084187
2005-05-19 07:25:23 51°15.367 2°50.017 12.1745 3.588691 30.706441 5.016768
2005-05-19 07:25:29 51°15.367 2°49.986 12.178 3.589008 30.708802 5.117896
2005-05-19 07:25:34 51°15.366 2°49.956 12.1809 3.589534 30.713808 5.117896
2005-05-19 07:25:39 51°15.366 2°49.928 12.1816 3.589534 30.713808 5.117896
2005-05-19 07:25:43 51°15.365 2°49.906 12.1885 3.58964 30.714166 5.185315
2005-05-19 07:25:49 51°15.365 2°49.875 12.1842 3.589745 30.713236 5.117896
2005-05-19 07:25:54 51°15.365 2°49.848 12.1817 3.58985 30.712951 5.016768
2005-05-19 07:25:59 51°15.365 2°49.82 12.1812 3.590166 30.714024 5.320153
2005-05-19 07:26:03 51°15.364 2°49.795 12.1831 3.590377 30.715383 5.117896
2005-05-19 07:26:08 51°15.364 2°49.77 12.183 3.590377 30.715383 5.117896
2005-05-19 07:26:14 51°15.363 2°49.734 12.1857 3.590483 30.714454 4.91564
2005-05-19 07:26:19 51°15.363 2°49.709 12.1866 3.590588 30.712881 4.949349
2005-05-19 07:26:24 51°15.363 2°49.681 12.1826 3.590799 30.712953 4.88193
2005-05-19 07:26:29 51°15.363 2°49.653 12.184 3.59122 30.717601 5.016768
2005-05-19 07:26:33 51°15.362 2°49.628 12.1843 3.591431 30.720246 5.016768
2005-05-19 07:26:39 51°15.362 2°49.598 12.18 3.591431 30.720246 5.016768
2005-05-19 07:26:43 51°15.362 2°49.573 12.1824 3.591958 30.723964 4.983059
2005-05-19 07:26:49 51°15.361 2°49.542 12.1746 3.591747 30.721319 4.88193
2005-05-19 07:26:53 51°15.361 2°49.52 12.1661 3.592484 30.728325 4.91564
2005-05-19 07:26:59 51°15.36 2°49.484 12.1657 3.593117 30.734331 4.814512
2005-05-19 07:27:04 51°15.36 2°49.459 12.1616 3.593538 30.739623 4.814512
2005-05-19 07:27:09 51°15.359 2°49.432 12.1579 3.593538 30.739623 4.814512
2005-05-19 07:27:13 51°15.359 2°49.41 12.1571 3.593959 30.742984 4.814512
2005-05-19 07:27:19 51°15.358 2°49.374 12.1536 3.594592 30.750922 4.780802
2005-05-19 07:27:23 51°15.357 2°49.351 12.1382 3.595435 30.76022 4.848221
2005-05-19 07:27:29 51°15.356 2°49.321 12.1339 3.596383 30.77181 4.848221
2005-05-19 07:27:33 51°15.356 2°49.296 12.1362 3.597437 30.786339 4.848221
2005-05-19 07:27:39 51°15.355 2°49.265 12.1307 3.597437 30.786339 4.848221
2005-05-19 07:27:44 51°15.355 2°49.235 12.1223 3.598069 30.795575 5.050477
2005-05-19 07:27:49 51°15.354 2°49.21 12.1279 3.599017 30.808464 5.117896
2005-05-19 07:27:54 51°15.354 2°49.182 12.1196 3.599965 30.819418 4.949349
2005-05-19 07:27:57 51°15.353 2°49.165 12.12 3.601335 30.838262 4.91564
2005-05-19 07:28:04 51°15.352 2°49.124 12.1162 3.602811 30.858116 5.185315
2005-05-19 07:28:09 51°15.352 2°49.096 12.1169 3.602811 30.858116 5.185315
2005-05-19 07:28:14 51°15.351 2°49.071 12.1193 3.603548 30.869018 4.983059
2005-05-19 07:28:19 51°15.35 2°49.044 12.1183 3.604075 30.877916 5.050477
2005-05-19 07:28:23 51°15.35 2°49.018 12.1184 3.605023 30.892126 4.91564
2005-05-19 07:28:29 51°15.35 2°48.988 12.1158 3.605339 30.897079 4.88193
2005-05-19 07:28:33 51°15.35 2°48.966 12.1239 3.605761 30.903685 4.949349
2005-05-19 07:28:39 51°15.349 2°48.93 12.1234 3.605761 30.903685 4.949349
2005-05-19 07:28:43 51°15.348 2°48.907 12.1297 3.605761 30.904982 5.050477
2005-05-19 07:28:49 51°15.348 2°48.877 12.1289 3.606393 30.91165 5.016768
2005-05-19 07:28:54 51°15.347 2°48.849 12.128 3.606499 30.9146 5.117896
2005-05-19 07:28:59 51°15.347 2°48.821 12.1267 3.606604 30.915603 5.151606
2005-05-19 07:29:03 51°15.346 2°48.797 12.1288 3.60692 30.919262 5.151606
2005-05-19 07:29:09 51°15.345 2°48.764 12.1304 3.60692 30.919262 5.151606
2005-05-19 07:29:14 51°15.345 2°48.739 12.1259 3.607236 30.919028 5.387571
2005-05-19 07:29:19 51°15.344 2°48.708 12.1272 3.607341 30.918734 5.117896
2005-05-19 07:29:24 51°15.343 2°48.683 12.1245 3.607868 30.920506 5.151606
2005-05-19 07:29:27 51°15.343 2°48.664 12.1229 3.608184 30.924165 5.219024
2005-05-19 07:29:33 51°15.342 2°48.631 12.1241 3.608922 30.931187 5.387571
2005-05-19 07:29:39 51°15.342 2°48.6 12.1239 3.608922 30.931187 5.387571
2005-05-19 07:29:43 51°15.342 2°48.575 12.1216 3.609343 30.9352 5.387571
2005-05-19 07:29:49 51°15.341 2°48.545 12.123 3.609976 30.94122 5.387571
2005-05-19 07:29:53 51°15.341 2°48.52 12.1229 3.610397 30.945233 5.522409
2005-05-19 07:29:59 51°15.34 2°48.49 12.1229 3.610608 30.948539 5.353862
2005-05-19 07:30:04 51°15.34 2°48.462 12.1147 3.611029 30.954501 5.320153
2005-05-19 07:30:09 51°15.34 2°48.434 12.1175 3.611029 30.954501 5.320153
2005-05-19 07:30:13 51°15.339 2°48.41 12.1101 3.611135 30.954855 5.353862
2005-05-19 07:30:19 51°15.339 2°48.379 12.1123 3.611556 30.959518 5.286443
2005-05-19 07:30:23 51°15.338 2°48.354 12.1126 3.611767 30.962175 5.185315
2005-05-19 07:30:29 51°15.338 2°48.324 12.1112 3.611872 30.963828 5.286443
2005-05-19 07:30:34 51°15.337 2°48.296 12.1023 3.611767 30.963474 5.151606
2005-05-19 07:30:39 51°15.337 2°48.269 12.1014 3.611767 30.963474 5.151606
2005-05-19 07:30:43 51°15.336 2°48.244 12.097 3.61261 30.974103 5.151606
2005-05-19 07:30:49 51°15.336 2°48.213 12.0977 3.612926 30.978414 5.016768
2005-05-19 07:30:54 51°15.335 2°48.185 12.0929 3.613242 30.983376 5.016768
2005-05-19 07:30:59 51°15.335 2°48.158 12.0885 3.613347 30.98438 4.91564
2005-05-19 07:31:04 51°15.334 2°48.13 12.0845 3.613347 30.986331 4.949349
2005-05-19 07:31:09 51°15.334 2°48.102 12.0881 3.613347 30.986331 4.949349
2005-05-19 07:31:13 51°15.333 2°48.08 12.0798 3.613769 30.994251 4.88193
2005-05-19 07:31:19 51°15.333 2°48.047 12.0834 3.614085 31.000517 4.780802
2005-05-19 07:31:24 51°15.332 2°48.019 12.0812 3.614612 31.00684 4.679674
2005-05-19 07:31:29 51°15.332 2°47.992 12.0731 3.614928 31.01376 4.612255
2005-05-19 07:31:33 51°15.331 2°47.969 12.0707 3.615244 31.020031 4.612255
2005-05-19 07:31:39 51°15.331 2°47.936 12.0676 3.615244 31.020031 4.612255
2005-05-19 07:31:43 51°15.331 2°47.911 12.07 3.615455 31.023995 4.578546
2005-05-19 07:31:49 51°15.33 2°47.88 12.0631 3.615982 31.030973 4.511127
2005-05-19 07:31:54 51°15.33 2°47.853 12.063 3.616614 31.038957 4.443708
2005-05-19 07:31:59 51°15.329 2°47.825 12.0582 3.61672 31.040614 4.511127
2005-05-19 07:32:03 51°15.328 2°47.8 12.0608 3.617036 31.048194 4.477418
2005-05-19 07:32:09 51°15.328 2°47.77 12.0535 3.617036 31.048194 4.477418
2005-05-19 07:32:13 51°15.328 2°47.745 12.0501 3.617141 31.052462 4.376289
2005-05-19 07:32:19 51°15.327 2°47.712 12.0446 3.617352 31.057735 4.174033
2005-05-19 07:32:23 51°15.327 2°47.69 12.0464 3.617457 31.061352 4.140324
2005-05-19 07:32:29 51°15.326 2°47.659 12.0416 3.617457 31.063311 4.039195
2005-05-19 07:32:34 51°15.326 2°47.631 12.0385 3.617668 31.067281 4.072905
2005-05-19 07:32:39 51°15.326 2°47.604 12.0428 3.617668 31.067281 4.072905
2005-05-19 07:32:43 51°15.325 2°47.579 12.0391 3.617879 31.071904 3.904358
2005-05-19 07:32:49 51°15.325 2°47.548 12.0361 3.617879 31.074518 3.870648
2005-05-19 07:32:54 51°15.324 2°47.52 12.0334 3.618406 31.083467 3.870648
2005-05-19 07:32:59 51°15.324 2°47.493 12.034 3.61809 31.082411 3.76952
2005-05-19 07:33:03 51°15.324 2°47.468 12.0306 3.618511 31.08905 3.735811
2005-05-19 07:33:09 51°15.323 2°47.438 12.0292 3.618511 31.08905 3.735811
2005-05-19 07:33:13 51°15.323 2°47.412 12.0348 3.618301 31.089 3.668392
2005-05-19 07:33:19 51°15.322 2°47.382 12.0282 3.618195 31.089302 3.702101
2005-05-19 07:33:24 51°15.322 2°47.354 12.0228 3.618511 31.092974 3.533554
2005-05-19 07:33:28 51°15.321 2°47.33 12.0201 3.618511 31.094282 3.499845
2005-05-19 07:33:34 51°15.321 2°47.299 12.0166 3.618301 31.094887 3.499845
2005-05-19 07:33:39 51°15.32 2°47.268 12.021 3.618301 31.094887 3.499845
2005-05-19 07:33:44 51°15.32 2°47.243 12.0184 3.618406 31.09851 3.533554
2005-05-19 07:33:49 51°15.32 2°47.216 12.0106 3.618301 31.099467 3.432426
2005-05-19 07:33:53 51°15.32 2°47.191 12.0049 3.618195 31.097806 3.331298
2005-05-19 07:33:59 51°15.319 2°47.16 12.0079 3.618301 31.10143 3.365007
2005-05-19 07:34:03 51°15.319 2°47.135 12.0047 3.618301 31.105358 3.331298
2005-05-19 07:34:09 51°15.318 2°47.105 12.0062 3.618301 31.105358 3.331298
2005-05-19 07:34:14 51°15.318 2°47.077 12.0063 3.618512 31.109336 3.129042
2005-05-19 07:34:19 51°15.318 2°47.05 12.0046 3.618406 31.108984 3.162751
2005-05-19 07:34:23 51°15.317 2°47.025 12.0013 3.618301 31.111252 3.19646
2005-05-19 07:34:29 51°15.317 2°46.994 11.9985 3.618406 31.115534 3.027913
2005-05-19 07:34:34 51°15.316 2°46.967 12.0001 3.618196 31.116141 3.061623
2005-05-19 07:34:39 51°15.316 2°46.939 12.004 3.618196 31.116141 3.061623
2005-05-19 07:34:44 51°15.316 2°46.911 11.9994 3.618196 31.117451 2.893076
2005-05-19 07:34:49 51°15.315 2°46.884 11.9983 3.617985 31.117404 3.061623
2005-05-19 07:34:54 51°15.315 2°46.856 11.9971 3.61788 31.117052 2.859366
2005-05-19 07:34:59 51°15.314 2°46.826 11.9997 3.617774 31.117356 2.960494
2005-05-19 07:35:03 51°15.314 2°46.804 11.998 3.617774 31.119322 3.027913
2005-05-19 07:35:09 51°15.314 2°46.773 11.9977 3.617774 31.119322 3.027913
2005-05-19 07:35:14 51°15.313 2°46.746 11.9915 3.617669 31.11897 2.859366
2005-05-19 07:35:19 51°15.313 2°46.719 11.9925 3.617458 31.116956 2.926785
2005-05-19 07:35:23 51°15.312 2°46.694 11.9939 3.617353 31.116605 2.859366
2005-05-19 07:35:28 51°15.312 2°46.666 11.9935 3.617142 31.115901 2.65711
2005-05-19 07:35:33 51°15.312 2°46.641 11.9961 3.617142 31.116557 2.758238
2005-05-19 07:35:39 51°15.312 2°46.608 11.9949 3.617142 31.116557 2.758238
2005-05-19 07:35:43 51°15.311 2°46.583 11.9937 3.617142 31.116557 2.758238
2005-05-19 07:35:49 51°15.311 2°46.553 11.9902 3.616931 31.115198 2.791947
2005-05-19 07:35:53 51°15.311 2°46.531 11.9852 3.61651 31.113136 2.758238
2005-05-19 07:35:59 51°15.311 2°46.495 11.9854 3.616615 31.113487 2.724529
2005-05-19 07:36:03 51°15.311 2°46.473 11.9865 3.616194 31.110769 2.690819
2005-05-19 07:36:09 51°15.311 2°46.443 11.9872 3.616194 31.110769 2.690819
2005-05-19 07:36:13 51°15.31 2°46.418 11.9885 3.616194 31.109459 2.724529
2005-05-19 07:36:19 51°15.31 2°46.388 11.9813 3.616405 31.111473 2.791947
2005-05-19 07:36:23 51°15.309 2°46.363 11.9871 3.616405 31.112784 2.791947
2005-05-19 07:36:29 51°15.309 2°46.332 11.9847 3.616721 31.118428 2.65711
2005-05-19 07:36:34 51°15.309 2°46.305 11.9837 3.616721 31.121051 2.758238
2005-05-19 07:36:39 51°15.309 2°46.277 11.9806 3.616721 31.121051 2.758238
2005-05-19 07:36:44 51°15.309 2°46.25 11.9803 3.616615 31.120043 2.6234
2005-05-19 07:36:49 51°15.309 2°46.222 11.9799 3.61651 31.119036 2.589691
2005-05-19 07:36:54 51°15.308 2°46.195 11.9823 3.616721 31.121051 2.6234
2005-05-19 07:36:59 51°15.308 2°46.167 11.978 3.616615 31.121355 2.555982
2005-05-19 07:37:03 51°15.308 2°46.142 11.9767 3.616721 31.122362 2.589691
2005-05-19 07:37:09 51°15.308 2°46.109 11.9789 3.616721 31.122362 2.589691
2005-05-19 07:37:14 51°15.308 2°46.084 11.9793 3.61651 31.121659 2.65711
2005-05-19 07:37:19 51°15.308 2°46.056 11.9794 3.616615 31.123323 2.555982
2005-05-19 07:37:23 51°15.308 2°46.032 11.9786 3.616615 31.124634 2.589691
2005-05-19 07:37:29 51°15.307 2°46.001 11.9775 3.616615 31.12529 2.589691
2005-05-19 07:37:34 51°15.307 2°45.974 11.9774 3.616721 31.12761 2.690819
2005-05-19 07:37:39 51°15.307 2°45.943 11.977 3.616721 31.12761 2.690819
2005-05-19 07:37:43 51°15.307 2°45.921 11.9817 3.616615 31.127915 2.488563
2005-05-19 07:37:48 51°15.306 2°45.894 11.9818 3.616721 31.128922 2.488563
2005-05-19 07:37:53 51°15.307 2°45.866 11.9755 3.616826 31.130586 2.522272
2005-05-19 07:37:59 51°15.306 2°45.835 11.9787 3.617037 31.132602 2.65711
2005-05-19 07:38:03 51°15.306 2°45.811 11.9796 3.616826 31.131242 2.522272
2005-05-19 07:38:09 51°15.306 2°45.78 11.9784 3.616826 31.131242 2.522272
2005-05-19 07:38:14 51°15.305 2°45.753 11.9786 3.616932 31.13225 2.522272
2005-05-19 07:38:19 51°15.305 2°45.722 11.9776 3.616826 31.130586 2.454853
2005-05-19 07:38:23 51°15.305 2°45.7 11.9779 3.616932 31.129625 2.488563
2005-05-19 07:38:29 51°15.304 2°45.67 11.9772 3.616615 31.127259 2.522272
2005-05-19 07:38:33 51°15.303 2°45.648 11.9728 3.616615 31.127915 2.589691
2005-05-19 07:38:39 51°15.3 2°45.617 11.9728 3.616615 31.127915 2.589691
2005-05-19 07:38:43 51°15.295 2°45.594 11.9765 3.616615 31.127259 2.454853
2005-05-19 07:38:49 51°15.288 2°45.568 11.9761 3.616615 31.127259 2.555982
2005-05-19 07:38:54 51°15.28 2°45.545 11.9758 3.616615 31.128571 2.488563
2005-05-19 07:38:59 51°15.273 2°45.522 11.9787 3.616615 31.127915 2.454853
2005-05-19 07:39:03 51°15.266 2°45.501 11.9783 3.616932 31.132906 2.421144
2005-05-19 07:39:09 51°15.258 2°45.475 11.9744 3.616932 31.132906 2.421144
2005-05-19 07:39:13 51°15.252 2°45.455 11.974 3.616721 31.133516 2.421144
2005-05-19 07:39:19 51°15.244 2°45.426 11.9857 3.615773 31.125758 2.353725
2005-05-19 07:39:24 51°15.237 2°45.402 11.9839 3.616405 31.131805 2.454853
2005-05-19 07:39:29 51°15.231 2°45.377 11.9919 3.616615 31.131852 2.555982
2005-05-19 07:39:33 51°15.228 2°45.353 11.9842 3.61651 31.129532 2.488563
2005-05-19 07:39:39 51°15.225 2°45.324 11.9869 3.61651 31.129532 2.488563
2005-05-19 07:39:43 51°15.224 2°45.3 11.9809 3.616826 31.130586 2.387435
2005-05-19 07:39:48 51°15.222 2°45.273 11.9867 3.617037 31.13457 2.353725
2005-05-19 07:39:53 51°15.222 2°45.249 11.9675 3.617353 31.135625 2.353725
2005-05-19 07:39:59 51°15.222 2°45.214 11.9702 3.617458 31.133351 2.421144
2005-05-19 07:40:03 51°15.222 2°45.192 11.9673 3.617985 31.135108 2.387435
2005-05-19 07:40:09 51°15.222 2°45.162 11.9683 3.617985 31.135108 2.387435
2005-05-19 07:40:13 51°15.223 2°45.137 11.9601 3.618723 31.140848 2.286306
2005-05-19 07:40:19 51°15.224 2°45.105 11.9611 3.61925 31.146542 2.286306
2005-05-19 07:40:23 51°15.225 2°45.083 11.9614 3.61925 31.148512 2.320016
2005-05-19 07:40:29 51°15.225 2°45.052 11.9646 3.619566 31.155474 2.286306
2005-05-19 07:40:34 51°15.226 2°45.025 11.9585 3.619882 31.162438 2.320016
2005-05-19 07:40:39 51°15.227 2°44.995 11.9623 3.619882 31.162438 2.320016
2005-05-19 07:40:44 51°15.228 2°44.97 11.961 3.619671 31.163707 2.320016
2005-05-19 07:40:48 51°15.228 2°44.946 11.9574 3.619777 31.166687 2.353725
2005-05-19 07:40:53 51°15.228 2°44.921 11.9561 3.619882 31.170324 2.353725
2005-05-19 07:40:59 51°15.228 2°44.888 11.9533 3.619671 31.169622 2.252597
2005-05-19 07:41:03 51°15.228 2°44.863 11.9504 3.619777 31.171288 2.286306
2005-05-19 07:41:09 51°15.229 2°44.833 11.9515 3.619777 31.171288 2.286306
2005-05-19 07:41:14 51°15.229 2°44.805 11.9489 3.619882 31.172953 2.252597
2005-05-19 07:41:19 51°15.229 2°44.778 11.9515 3.620093 31.175627 2.320016
2005-05-19 07:41:23 51°15.23 2°44.753 11.9477 3.619987 31.175276 2.252597
2005-05-19 07:41:29 51°15.23 2°44.723 11.9467 3.62083 31.186632 2.218888
2005-05-19 07:41:33 51°15.23 2°44.701 11.9502 3.621463 31.19334 2.151469
2005-05-19 07:41:39 51°15.231 2°44.668 11.9461 3.621463 31.19334 2.151469
2005-05-19 07:41:43 51°15.232 2°44.643 11.9553 3.623149 31.211452 2.016631
2005-05-19 07:41:49 51°15.233 2°44.612 11.9546 3.624834 31.228908 1.982922
2005-05-19 07:41:54 51°15.234 2°44.584 11.9593 3.62631 31.244349 1.949212
2005-05-19 07:41:59 51°15.235 2°44.557 11.9456 3.628417 31.264528 1.848084
2005-05-19 07:42:03 51°15.237 2°44.532 11.9529 3.630419 31.285019 1.915503
2005-05-19 07:42:09 51°15.238 2°44.501 11.9502 3.630419 31.285019 1.915503
2005-05-19 07:42:14 51°15.24 2°44.474 11.9543 3.631789 31.298137 1.848084
2005-05-19 07:42:19 51°15.241 2°44.443 11.957 3.633369 31.313275 1.679537
2005-05-19 07:42:23 51°15.243 2°44.421 11.9486 3.633896 31.316339 1.713247
2005-05-19 07:42:29 51°15.245 2°44.39 11.9477 3.634528 31.319751 1.780665
2005-05-19 07:42:34 51°15.247 2°44.363 11.948 3.635793 31.333183 1.780665
2005-05-19 07:42:39 51°15.249 2°44.332 11.9468 3.635793 31.333183 1.780665
2005-05-19 07:42:43 51°15.251 2°44.31 11.948 3.636214 31.337881 1.679537
2005-05-19 07:42:49 51°15.253 2°44.28 11.9485 3.636741 31.342927 1.780665
2005-05-19 07:42:53 51°15.255 2°44.258 11.945 3.636952 31.344946 1.679537
2005-05-19 07:42:59 51°15.257 2°44.224 11.9516 3.637163 31.346303 1.746956
2005-05-19 07:43:03 51°15.259 2°44.2 11.9507 3.637584 31.352325 1.713247
2005-05-19 07:43:09 51°15.261 2°44.169 11.9442 3.637584 31.352325 1.713247
2005-05-19 07:43:14 51°15.264 2°44.142 11.9524 3.637584 31.353648 1.713247
2005-05-19 07:43:19 51°15.266 2°44.112 11.9447 3.637795 31.355667 1.780665
2005-05-19 07:43:24 51°15.268 2°44.087 11.9431 3.637584 31.353648 1.713247
2005-05-19 07:43:29 51°15.27 2°44.06 11.9445 3.638006 31.358347 1.713247
2005-05-19 07:43:34 51°15.273 2°44.032 11.9434 3.638006 31.358347 1.612118
2005-05-19 07:43:39 51°15.275 2°44.004 11.9432 3.638006 31.358347 1.612118
2005-05-19 07:43:43 51°15.277 2°43.98 11.9458 3.637479 31.3533 1.612118
2005-05-19 07:43:49 51°15.28 2°43.95 11.9384 3.638216 31.360366 1.612118
2005-05-19 07:43:53 51°15.282 2°43.927 11.94 3.638427 31.362385 1.612118
2005-05-19 07:43:59 51°15.285 2°43.895 11.9387 3.638427 31.36437 1.578409
2005-05-19 07:44:03 51°15.288 2°43.87 11.9353 3.638743 31.368723 1.612118
2005-05-19 07:44:08 51°15.291 2°43.842 11.9365 3.638743 31.368723 1.612118
2005-05-19 07:44:13 51°15.294 2°43.815 11.9451 3.638533 31.367365 1.578409
2005-05-19 07:44:19 51°15.297 2°43.782 11.9325 3.638638 31.368375 1.477281
2005-05-19 07:44:24 51°15.3 2°43.757 11.9323 3.638533 31.368689 1.5447
2005-05-19 07:44:29 51°15.303 2°43.729 11.9315 3.638217 31.366984 1.51099
2005-05-19 07:44:34 51°15.306 2°43.702 11.9337 3.638638 31.370361 1.51099
2005-05-19 07:44:39 51°15.31 2°43.672 11.9261 3.638638 31.370361 1.51099
2005-05-19 07:44:44 51°15.312 2°43.647 11.9269 3.638322 31.36998 1.51099
2005-05-19 07:44:49 51°15.315 2°43.62 11.921 3.638322 31.36998 1.5447
2005-05-19 07:44:54 51°15.318 2°43.592 11.9174 3.638427 31.370328 1.578409
2005-05-19 07:44:59 51°15.321 2°43.565 11.9144 3.638217 31.371619 1.5447
2005-05-19 07:45:03 51°15.323 2°43.54 11.9116 3.638638 31.377646 1.51099
2005-05-19 07:45:09 51°15.326 2°43.509 11.91 3.638638 31.377646 1.51099
2005-05-19 07:45:13 51°15.327 2°43.487 11.9037 3.638638 31.378308 1.477281
2005-05-19 07:45:19 51°15.33 2°43.451 11.901 3.638533 31.378623 1.409862
2005-05-19 07:45:23 51°15.332 2°43.429 11.9017 3.638638 31.382946 1.578409
2005-05-19 07:45:29 51°15.334 2°43.399 11.893 3.638533 31.385249 1.51099
2005-05-19 07:45:33 51°15.336 2°43.377 11.8924 3.638849 31.390268 1.5447
2005-05-19 07:45:39 51°15.338 2°43.343 11.8826 3.638849 31.390268 1.5447
2005-05-19 07:45:44 51°15.34 2°43.316 11.8794 3.639165 31.396614 1.51099
2005-05-19 07:45:49 51°15.342 2°43.288 11.8692 3.639165 31.398604 1.5447
2005-05-19 07:45:54 51°15.344 2°43.258 11.8691 3.639587 31.40729 1.578409
2005-05-19 07:45:59 51°15.346 2°43.233 11.8574 3.639481 31.408933 1.5447
2005-05-19 07:46:03 51°15.349 2°43.208 11.8524 3.639692 31.41361 1.5447
2005-05-19 07:46:09 51°15.351 2°43.178 11.8369 3.639692 31.41361 1.5447
2005-05-19 07:46:13 51°15.353 2°43.153 11.839 3.639481 31.415571 1.578409
2005-05-19 07:46:19 51°15.355 2°43.123 11.8349 3.639692 31.422905 1.612118
2005-05-19 07:46:23 51°15.357 2°43.098 11.8303 3.639692 31.42822 1.612118
2005-05-19 07:46:29 51°15.359 2°43.067 11.8179 3.639587 31.432525 1.645828
2005-05-19 07:46:33 51°15.361 2°43.045 11.8154 3.639271 31.435473 1.645828
2005-05-19 07:46:39 51°15.363 2°43.009 11.8117 3.639271 31.435473 1.645828
2005-05-19 07:46:43 51°15.365 2°42.987 11.8075 3.638955 31.440418 1.746956
2005-05-19 07:46:49 51°15.367 2°42.957 11.8124 3.638534 31.443689 1.746956
2005-05-19 07:46:54 51°15.369 2°42.929 11.804 3.638218 31.445976 1.713247
2005-05-19 07:46:59 51°15.372 2°42.899 11.8019 3.637691 31.445574 1.746956
2005-05-19 07:47:03 51°15.373 2°42.876 11.7965 3.637691 31.450235 1.746956
2005-05-19 07:47:09 51°15.376 2°42.846 11.793 3.637691 31.450235 1.746956
2005-05-19 07:47:13 51°15.378 2°42.821 11.7824 3.636848 31.449459 1.746956
2005-05-19 07:47:19 51°15.38 2°42.788 11.7838 3.636532 31.45175 1.746956
2005-05-19 07:47:23 51°15.381 2°42.765 11.7794 3.636005 31.450017 1.713247
2005-05-19 07:47:29 51°15.384 2°42.735 11.778 3.635795 31.451989 1.746956
2005-05-19 07:47:34 51°15.386 2°42.708 11.7848 3.635478 31.449616 1.713247
2005-05-19 07:47:39 51°15.388 2°42.678 11.7783 3.635478 31.449616 1.713247
2005-05-19 07:47:44 51°15.39 2°42.652 11.775 3.635373 31.451935 1.645828
2005-05-19 07:47:49 51°15.392 2°42.625 11.7738 3.635373 31.457268 1.645828
2005-05-19 07:47:54 51°15.394 2°42.597 11.7666 3.635584 31.463296 1.780665
2005-05-19 07:47:59 51°15.396 2°42.569 11.7637 3.635163 31.463911 1.713247
2005-05-19 07:48:04 51°15.399 2°42.542 11.7677 3.635268 31.468261 1.746956
2005-05-19 07:48:09 51°15.401 2°42.514 11.7663 3.635268 31.468261 1.746956
2005-05-19 07:48:13 51°15.402 2°42.492 11.7736 3.635268 31.468261 1.780665
2005-05-19 07:48:19 51°15.405 2°42.459 11.7729 3.635584 31.475307 1.713247
2005-05-19 07:48:23 51°15.406 2°42.435 11.7726 3.63569 31.476988 1.713247
2005-05-19 07:48:29 51°15.408 2°42.404 11.7764 3.636427 31.488761 1.746956
2005-05-19 07:48:33 51°15.411 2°42.379 11.7719 3.636954 31.495836 1.578409
2005-05-19 07:48:39 51°15.413 2°42.349 11.775 3.636954 31.495836 1.578409
2005-05-19 07:48:44 51°15.416 2°42.321 11.7743 3.637692 31.502936 1.645828
2005-05-19 07:48:49 51°15.418 2°42.294 11.7681 3.638113 31.50833 1.645828
2005-05-19 07:48:54 51°15.422 2°42.267 11.7707 3.63864 31.511396 1.578409
2005-05-19 07:48:59 51°15.426 2°42.24 11.7744 3.639694 31.52087 1.612118
2005-05-19 07:49:03 51°15.429 2°42.215 11.7671 3.640115 31.52359 1.5447
2005-05-19 07:49:09 51°15.433 2°42.185 11.7674 3.640115 31.52359 1.5447
2005-05-19 07:49:14 51°15.437 2°42.158 11.7648 3.640853 31.53069 1.477281
2005-05-19 07:49:19 51°15.442 2°42.129 11.7642 3.64138 31.535093 1.5447
2005-05-19 07:49:23 51°15.446 2°42.107 11.7603 3.641906 31.540833 1.409862
2005-05-19 07:49:29 51°15.451 2°42.078 11.7552 3.642433 31.547913 1.477281
2005-05-19 07:49:33 51°15.456 2°42.057 11.7579 3.64296 31.551646 1.477281
2005-05-19 07:49:39 51°15.463 2°42.025 11.7564 3.64296 31.551646 1.477281
2005-05-19 07:49:43 51°15.469 2°42.002 11.7529 3.643592 31.557064 1.51099
2005-05-19 07:49:49 51°15.477 2°41.974 11.7437 3.643803 31.56244 1.409862
2005-05-19 07:49:53 51°15.483 2°41.954 11.7408 3.644435 31.571207 1.409862
2005-05-19 07:49:59 51°15.492 2°41.92 11.7406 3.644646 31.574576 1.443571
2005-05-19 07:50:04 51°15.5 2°41.898 11.7387 3.644857 31.579286 1.443571
2005-05-19 07:50:09 51°15.508 2°41.873 11.7407 3.644857 31.579286 1.443571
2005-05-19 07:50:13 51°15.515 2°41.853 11.7401 3.645173 31.583671 1.376153
2005-05-19 07:50:19 51°15.527 2°41.824 11.7344 3.645278 31.586026 1.443571
2005-05-19 07:50:23 51°15.535 2°41.802 11.7363 3.645911 31.595469 1.51099
2005-05-19 07:50:29 51°15.547 2°41.777 11.7321 3.645911 31.598822 1.443571
2005-05-19 07:50:33 51°15.556 2°41.756 11.7325 3.646227 31.605222 1.578409
2005-05-19 07:50:39 51°15.569 2°41.731 11.7275 3.646227 31.605222 1.578409
2005-05-19 07:50:44 51°15.579 2°41.708 11.7251 3.646227 31.605893 1.51099
2005-05-19 07:50:49 51°15.591 2°41.685 11.7233 3.646227 31.607235 1.5447
2005-05-19 07:50:54 51°15.603 2°41.66 11.7187 3.646648 31.611968 1.5447
2005-05-19 07:50:59 51°15.614 2°41.638 11.7253 3.646965 31.617028 1.5447
2005-05-19 07:51:03 51°15.623 2°41.62 11.72 3.64707 31.619386 1.612118
2005-05-19 07:51:09 51°15.635 2°41.594 11.7274 3.64707 31.619386 1.612118
2005-05-19 07:51:14 51°15.646 2°41.571 11.7121 3.647281 31.62276 1.645828
2005-05-19 07:51:19 51°15.658 2°41.546 11.7176 3.64707 31.623416 1.679537
2005-05-19 07:51:23 51°15.666 2°41.527 11.7154 3.647702 31.633541 1.645828
2005-05-19 07:51:29 51°15.678 2°41.502 11.7216 3.647808 31.636573 1.679537
2005-05-19 07:51:33 51°15.686 2°41.484 11.719 3.647597 31.636557 1.679537
2005-05-19 07:51:39 51°15.7 2°41.455 11.7157 3.647597 31.636557 1.679537
2005-05-19 07:51:43 51°15.71 2°41.435 11.7141 3.647597 31.636557 1.612118
2005-05-19 07:51:49 51°15.721 2°41.409 11.7117 3.647597 31.637901 1.679537
2005-05-19 07:51:53 51°15.731 2°41.391 11.708 3.647808 31.642622 1.679537
2005-05-19 07:51:59 51°15.744 2°41.361 11.7118 3.647808 31.643295 1.612118
2005-05-19 07:52:04 51°15.755 2°41.34 11.705 3.647702 31.641606 1.645828
2005-05-19 07:52:09 51°15.765 2°41.317 11.7057 3.647702 31.641606 1.645828
2005-05-19 07:52:13 51°15.775 2°41.296 11.7123 3.647597 31.639246 1.578409
2005-05-19 07:52:19 51°15.787 2°41.27 11.7052 3.647808 31.642622 1.612118
2005-05-19 07:52:23 51°15.797 2°41.249 11.7063 3.647597 31.645297 1.51099
2005-05-19 07:52:29 51°15.809 2°41.223 11.7065 3.647703 31.646313 1.51099
2005-05-19 07:52:33 51°15.818 2°41.205 11.7073 3.647703 31.648331 1.477281
2005-05-19 07:52:39 51°15.831 2°41.177 11.7126 3.647703 31.648331 1.477281
2005-05-19 07:52:43 51°15.841 2°41.156 11.7076 3.647597 31.64866 1.5447
2005-05-19 07:52:49 51°15.853 2°41.131 11.7068 3.647703 31.649676 1.612118
2005-05-19 07:52:54 51°15.864 2°41.107 11.7102 3.647281 31.646283 1.51099
2005-05-19 07:52:59 51°15.875 2°41.084 11.7094 3.647281 31.646956 1.612118
2005-05-19 07:53:03 51°15.885 2°41.063 11.7081 3.647176 31.64594 1.578409
2005-05-19 07:53:09 51°15.897 2°41.037 11.7081 3.647176 31.64594 1.578409
2005-05-19 07:53:14 51°15.908 2°41.014 11.7092 3.64707 31.645596 1.645828
2005-05-19 07:53:19 51°15.919 2°40.991 11.715 3.647176 31.64594 1.645828
2005-05-19 07:53:24 51°15.93 2°40.968 11.7133 3.64707 31.644923 1.645828
2005-05-19 07:53:29 51°15.941 2°40.945 11.7071 3.646965 31.643907 1.578409
2005-05-19 07:53:33 51°15.951 2°40.928 11.7083 3.64707 31.643578 1.645828
2005-05-19 07:53:39 51°15.965 2°40.901 11.7097 3.64707 31.643578 1.645828
2005-05-19 07:53:43 51°15.976 2°40.881 11.7087 3.646544 31.639169 1.5447
2005-05-19 07:53:47 51°15.986 2°40.863 11.7076 3.646544 31.639169 1.578409
2005-05-19 07:53:53 51°16 2°40.836 11.7105 3.646544 31.638496 1.679537
2005-05-19 07:53:59 51°16.015 2°40.809 11.7122 3.646333 31.634447 1.578409
2005-05-19 07:54:03 51°16.025 2°40.792 11.706 3.646227 31.635448 1.612118
2005-05-19 07:54:09 51°16.038 2°40.768 11.7063 3.646227 31.635448 1.612118
2005-05-19 07:54:14 51°16.051 2°40.745 11.7074 3.646017 31.634087 1.5447
2005-05-19 07:54:19 51°16.065 2°40.721 11.7018 3.645806 31.631383 1.5447
2005-05-19 07:54:24 51°16.076 2°40.701 11.7012 3.645806 31.630038 1.51099
2005-05-19 07:54:29 51°16.088 2°40.679 11.6975 3.64549 31.628334 1.443571
2005-05-19 07:54:34 51°16.1 2°40.657 11.6936 3.645595 31.62935 1.578409
2005-05-19 07:54:39 51°16.113 2°40.635 11.6859 3.645595 31.62935 1.578409
2005-05-19 07:54:43 51°16.124 2°40.615 11.6864 3.64549 31.630351 1.51099
2005-05-19 07:54:49 51°16.137 2°40.591 11.6845 3.645174 31.625957 1.477281
2005-05-19 07:54:54 51°16.15 2°40.568 11.689 3.645068 31.626958 1.477281
2005-05-19 07:54:59 51°16.162 2°40.547 11.6843 3.644858 31.626942 1.376153
2005-05-19 07:55:03 51°16.174 2°40.527 11.6838 3.644858 31.630304 1.477281
2005-05-19 07:55:09 51°16.187 2°40.502 11.6765 3.644858 31.630304 1.477281
2005-05-19 07:55:13 51°16.198 2°40.482 11.6779 3.644752 31.63265 1.409862
2005-05-19 07:55:19 51°16.212 2°40.458 11.6718 3.644647 31.634996 1.342443
2005-05-19 07:55:23 51°16.223 2°40.439 11.6758 3.644858 31.639721 1.342443
2005-05-19 07:55:29 51°16.236 2°40.418 11.6706 3.644647 31.637014 1.308734
2005-05-19 07:55:32 51°16.243 2°40.404 11.6687 3.644858 31.641067 1.409862
2005-05-19 07:55:39 51°16.257 2°40.381 11.6682 3.644858 31.641067 1.409862
2005-05-19 07:55:43 51°16.265 2°40.366 11.6639 3.644858 31.643086 1.308734
2005-05-19 07:55:49 51°16.274 2°40.349 11.6696 3.645174 31.648829 1.342443
2005-05-19 07:55:53 51°16.281 2°40.337 11.6688 3.645069 31.650505 1.342443
2005-05-19 07:55:59 51°16.288 2°40.319 11.6748 3.645174 31.652195 1.376153
2005-05-19 07:56:03 51°16.292 2°40.307 11.6716 3.645174 31.654216 1.51099
2005-05-19 07:56:09 51°16.296 2°40.292 11.6757 3.645174 31.654216 1.51099
2005-05-19 07:56:13 51°16.298 2°40.282 11.6776 3.645069 31.655893 1.5447
2005-05-19 07:56:19 51°16.3 2°40.268 11.6796 3.644963 31.656223 1.578409
2005-05-19 07:56:24 51°16.301 2°40.257 11.6836 3.644542 31.654174 1.5447
2005-05-19 07:56:29 51°16.301 2°40.248 11.6864 3.643699 31.646709 1.612118
2005-05-19 07:56:33 51°16.301 2°40.24 11.6889 3.643383 31.643657 1.679537
2005-05-19 07:56:39 51°16.301 2°40.23 11.692 3.643383 31.643657 1.679537
2005-05-19 07:56:44 51°16.301 2°40.224 11.6935 3.642961 31.637568 1.780665
2005-05-19 07:56:49 51°16.301 2°40.217 11.6975 3.642434 31.631136 1.848084
2005-05-19 07:56:54 51°16.3 2°40.21 11.6996 3.642224 31.628428 1.780665
2005-05-19 07:56:59 51°16.301 2°40.205 11.6993 3.642224 31.624391 1.814375
2005-05-19 07:57:04 51°16.3 2°40.199 11.7006 3.642118 31.620683 1.780665
2005-05-19 07:57:09 51°16.3 2°40.194 11.7025 3.642118 31.620683 1.780665
2005-05-19 07:57:14 51°16.3 2°40.191 11.7026 3.641907 31.615959 1.814375
2005-05-19 07:57:19 51°16.3 2°40.187 11.7005 3.642013 31.613614 1.848084
2005-05-19 07:57:23 51°16.3 2°40.184 11.7005 3.641907 31.609908 1.915503
2005-05-19 07:57:29 51°16.3 2°40.182 11.7066 3.642223 31.610269 1.982922
2005-05-19 07:57:34 51°16.3 2°40.18 11.7051 3.642118 31.607908 1.915503
2005-05-19 07:57:39 51°16.301 2°40.18 11.7041 3.642118 31.607908 1.915503
2005-05-19 07:57:43 51°16.301 2°40.18 11.7056 3.642118 31.606564 1.982922
2005-05-19 07:57:49 51°16.302 2°40.18 11.7047 3.642118 31.604548 1.881794
2005-05-19 07:57:54 51°16.304 2°40.181 11.7072 3.642223 31.605565 2.08405
2005-05-19 07:57:59 51°16.305 2°40.182 11.6967 3.642223 31.605565 1.949212
2005-05-19 07:58:04 51°16.306 2°40.182 11.7003 3.642118 31.602533 1.915503
2005-05-19 07:58:09 51°16.307 2°40.184 11.6979 3.642118 31.602533 1.915503
2005-05-19 07:58:14 51°16.309 2°40.184 11.7016 3.642223 31.602877 2.08405
2005-05-19 07:58:19 51°16.31 2°40.186 11.6974 3.642118 31.601189 2.08405
2005-05-19 07:58:23 51°16.311 2°40.186 11.7014 3.642118 31.601189 2.08405
2005-05-19 07:58:28 51°16.313 2°40.187 11.702 3.642013 31.600173 2.050341
2005-05-19 07:58:34 51°16.314 2°40.188 11.7045 3.642013 31.600845 2.08405
2005-05-19 07:58:39 51°16.316 2°40.19 11.6982 3.642013 31.600845 2.08405
2005-05-19 07:58:43 51°16.317 2°40.191 11.6973 3.642013 31.603532 2.252597
2005-05-19 07:58:49 51°16.319 2°40.192 11.6985 3.641802 31.602843 2.218888
2005-05-19 07:58:54 51°16.32 2°40.194 11.6955 3.641907 31.602516 2.218888
2005-05-19 07:58:59 51°16.322 2°40.195 11.6928 3.641802 31.602171 2.286306
2005-05-19 07:59:04 51°16.323 2°40.196 11.6916 3.641802 31.600827 2.320016
2005-05-19 07:59:09 51°16.325 2°40.197 11.6989 3.641802 31.600827 2.320016
2005-05-19 07:59:14 51°16.326 2°40.199 11.6989 3.641591 31.599467 2.286306
2005-05-19 07:59:19 51°16.328 2°40.2 11.6952 3.641697 31.599811 2.387435
2005-05-19 07:59:23 51°16.329 2°40.201 11.6929 3.641697 31.601155 2.353725
2005-05-19 07:59:28 51°16.331 2°40.203 11.6943 3.641697 31.601155 2.286306
2005-05-19 07:59:33 51°16.333 2°40.204 11.705 3.64138 31.600121 2.555982
2005-05-19 07:59:39 51°16.335 2°40.206 11.6925 3.64138 31.600121 2.555982
2005-05-19 07:59:44 51°16.337 2°40.208 11.6992 3.641591 31.602826 2.488563
2005-05-19 07:59:49 51°16.338 2°40.209 11.6976 3.641275 31.599105 2.589691
2005-05-19 07:59:54 51°16.34 2°40.211 11.6932 3.64138 31.600793 2.589691
2005-05-19 07:59:59 51°16.342 2°40.212 11.6903 3.64138 31.601465 2.555982
2005-05-19 08:00:03 51°16.343 2°40.213 11.6956 3.64117 31.600104 2.589691
2005-05-19 08:00:09 51°16.345 2°40.215 11.6952 3.64117 31.600104 2.589691
2005-05-19 08:00:14 51°16.347 2°40.217 11.6939 3.641486 31.602481 2.555982
2005-05-19 08:00:19 51°16.349 2°40.219 11.6922 3.640538 31.593333 2.791947
2005-05-19 08:00:23 51°16.351 2°40.22 11.6888 3.641275 31.599105 2.825657
2005-05-19 08:00:29 51°16.353 2°40.222 11.6914 3.64117 31.599432 2.690819
2005-05-19 08:00:34 51°16.354 2°40.224 11.6901 3.641064 31.600431 2.791947
2005-05-19 08:00:39 51°16.356 2°40.225 11.6927 3.641064 31.600431 2.791947
2005-05-19 08:00:43 51°16.358 2°40.227 11.6924 3.640959 31.599415 2.960494
2005-05-19 08:00:49 51°16.36 2°40.228 11.6881 3.641275 31.60112 2.893076
2005-05-19 08:00:54 51°16.362 2°40.229 11.6966 3.641275 31.601792 2.859366
2005-05-19 08:00:59 51°16.364 2°40.23 11.6926 3.641064 31.600431 2.791947
2005-05-19 08:01:04 51°16.366 2°40.23 11.6987 3.641064 31.601775 2.960494
2005-05-19 08:01:09 51°16.368 2°40.23 11.6927 3.641064 31.601775 2.960494
2005-05-19 08:01:13 51°16.369 2°40.23 11.6935 3.641064 31.602447 2.960494
2005-05-19 08:01:19 51°16.371 2°40.229 11.6998 3.640959 31.601431 2.994204
2005-05-19 08:01:23 51°16.373 2°40.228 11.6988 3.641064 31.602447 3.061623
2005-05-19 08:01:29 51°16.375 2°40.227 11.7051 3.640959 31.600087 2.893076
2005-05-19 08:01:34 51°16.377 2°40.226 11.6962 3.640959 31.600087 3.095332
2005-05-19 08:01:39 51°16.379 2°40.226 11.7006 3.640959 31.600087 3.095332
2005-05-19 08:01:43 51°16.38 2°40.224 11.6964 3.640959 31.598743 3.027913
2005-05-19 08:01:49 51°16.382 2°40.222 11.7025 3.641064 31.599759 3.162751
2005-05-19 08:01:54 51°16.384 2°40.222 11.6971 3.64117 31.599432 2.960494
2005-05-19 08:01:59 51°16.386 2°40.219 11.7007 3.641064 31.597744 2.960494
2005-05-19 08:02:04 51°16.388 2°40.217 11.6992 3.64138 31.599449 2.926785
2005-05-19 08:02:09 51°16.389 2°40.215 11.6961 3.64138 31.599449 2.926785
2005-05-19 08:02:14 51°16.392 2°40.213 11.6996 3.64138 31.598777 2.960494
2005-05-19 08:02:19 51°16.393 2°40.211 11.7011 3.641486 31.601138 2.926785
2005-05-19 08:02:24 51°16.395 2°40.208 11.6984 3.641591 31.601482 3.129042
2005-05-19 08:02:29 51°16.397 2°40.206 11.7009 3.641486 31.601138 2.994204
2005-05-19 08:02:34 51°16.4 2°40.203 11.7002 3.641486 31.601138 2.893076
2005-05-19 08:02:39 51°16.401 2°40.201 11.6985 3.641486 31.601138 2.893076
2005-05-19 08:02:44 51°16.403 2°40.198 11.7001 3.641591 31.60081 2.859366
2005-05-19 08:02:49 51°16.405 2°40.196 11.6974 3.641802 31.603515 2.960494
2005-05-19 08:02:53 51°16.407 2°40.193 11.6948 3.641697 31.601827 2.893076
2005-05-19 08:02:59 51°16.41 2°40.19 11.6945 3.641697 31.602499 2.859366
2005-05-19 08:03:04 51°16.412 2°40.187 11.6917 3.641591 31.600138 2.893076
2005-05-19 08:03:09 51°16.414 2°40.184 11.6903 3.641591 31.600138 2.893076
2005-05-19 08:03:13 51°16.416 2°40.182 11.6905 3.642013 31.604204 2.926785
2005-05-19 08:03:19 51°16.419 2°40.179 11.6893 3.641802 31.603515 3.095332
2005-05-19 08:03:24 51°16.421 2°40.176 11.6917 3.642118 31.607236 2.994204
2005-05-19 08:03:29 51°16.424 2°40.173 11.6901 3.642013 31.606892 2.960494
2005-05-19 08:03:33 51°16.426 2°40.17 11.6892 3.641907 31.606547 2.960494
2005-05-19 08:03:39 51°16.429 2°40.167 11.688 3.641907 31.606547 2.960494
2005-05-19 08:03:43 51°16.431 2°40.165 11.6901 3.642013 31.60958 2.926785
2005-05-19 08:03:49 51°16.434 2°40.161 11.6873 3.641697 31.607203 3.027913
2005-05-19 08:03:53 51°16.437 2°40.159 11.6834 3.641802 31.609564 2.960494
2005-05-19 08:03:59 51°16.441 2°40.156 11.6808 3.641697 31.609219 2.859366
2005-05-19 08:04:04 51°16.443 2°40.153 11.6824 3.641381 31.605497 2.825657
2005-05-19 08:04:09 51°16.447 2°40.151 11.6797 3.641381 31.605497 2.825657
2005-05-19 08:04:13 51°16.45 2°40.149 11.6774 3.641907 31.61058 2.893076
2005-05-19 08:04:19 51°16.454 2°40.147 11.6801 3.641907 31.611253 2.893076
2005-05-19 08:04:24 51°16.458 2°40.145 11.6752 3.642013 31.612941 2.859366
2005-05-19 08:04:29 51°16.462 2°40.143 11.6815 3.642118 31.614631 2.758238
2005-05-19 08:04:33 51°16.465 2°40.141 11.6738 3.641697 31.613253 2.859366
2005-05-19 08:04:39 51°16.47 2°40.139 11.6755 3.641697 31.613253 2.859366
2005-05-19 08:04:44 51°16.474 2°40.138 11.6779 3.642013 31.616976 2.893076
2005-05-19 08:04:49 51°16.478 2°40.137 11.6754 3.642013 31.617648 3.061623
2005-05-19 08:04:53 51°16.481 2°40.136 11.675 3.641697 31.616616 2.724529
2005-05-19 08:04:59 51°16.487 2°40.135 11.6721 3.641908 31.620667 2.690819
2005-05-19 08:05:04 51°16.491 2°40.135 11.6765 3.642013 31.621684 2.825657
2005-05-19 08:05:08 51°16.495 2°40.135 11.6732 3.642013 31.621684 2.825657
2005-05-19 08:05:14 51°16.5 2°40.134 11.6756 3.642013 31.622357 2.893076
2005-05-19 08:05:19 51°16.505 2°40.135 11.676 3.641908 31.622013 2.791947
2005-05-19 08:05:23 51°16.509 2°40.135 11.6766 3.642118 31.624047 2.893076
2005-05-19 08:05:28 51°16.514 2°40.136 11.6821 3.642224 31.626409 2.825657
2005-05-19 08:05:34 51°16.519 2°40.137 11.6796 3.642224 31.625737 2.690819
2005-05-19 08:05:39 51°16.525 2°40.139 11.6805 3.642224 31.625737 2.690819
2005-05-19 08:05:43 51°16.529 2°40.14 11.6797 3.642224 31.626409 2.825657
2005-05-19 08:05:49 51°16.534 2°40.142 11.6846 3.642434 31.628444 2.65711
2005-05-19 08:05:54 51°16.539 2°40.144 11.6851 3.642434 31.628444 2.724529
2005-05-19 08:05:59 51°16.544 2°40.146 11.6836 3.642224 31.625737 2.724529
2005-05-19 08:06:03 51°16.548 2°40.149 11.685 3.64254 31.628115 2.758238
2005-05-19 08:06:09 51°16.554 2°40.152 11.6865 3.64254 31.628115 2.758238
2005-05-19 08:06:13 51°16.557 2°40.155 11.6868 3.64254 31.626769 2.65711
2005-05-19 08:06:19 51°16.563 2°40.159 11.684 3.642856 31.628474 2.791947
2005-05-19 08:06:24 51°16.568 2°40.164 11.6825 3.64275 31.627457 2.791947
2005-05-19 08:06:29 51°16.573 2°40.167 11.6828 3.642856 31.627129 2.791947
2005-05-19 08:06:34 51°16.577 2°40.172 11.6859 3.643067 31.627817 2.724529
2005-05-19 08:06:39 51°16.582 2°40.176 11.6829 3.643067 31.627817 2.724529
2005-05-19 08:06:44 51°16.586 2°40.181 11.684 3.643172 31.628161 2.724529
2005-05-19 08:06:49 51°16.59 2°40.186 11.6839 3.643488 31.629866 2.6234
2005-05-19 08:06:54 51°16.594 2°40.191 11.6801 3.643383 31.629522 2.555982
2005-05-19 08:06:59 51°16.598 2°40.196 11.683 3.643277 31.628505 2.555982
2005-05-19 08:07:03 51°16.601 2°40.201 11.6834 3.643699 31.632573 2.589691
2005-05-19 08:07:09 51°16.606 2°40.208 11.6847 3.643699 31.632573 2.589691
2005-05-19 08:07:14 51°16.609 2°40.213 11.6884 3.643804 31.63359 2.65711
2005-05-19 08:07:19 51°16.613 2°40.22 11.6893 3.643699 31.633246 2.488563
2005-05-19 08:07:23 51°16.616 2°40.225 11.6965 3.643699 31.633919 2.488563
2005-05-19 08:07:28 51°16.619 2°40.231 11.6914 3.64391 31.635952 2.454853
2005-05-19 08:07:33 51°16.621 2°40.236 11.6896 3.643699 31.634591 2.421144
2005-05-19 08:07:39 51°16.625 2°40.245 11.691 3.643699 31.634591 2.421144
2005-05-19 08:07:44 51°16.628 2°40.25 11.6907 3.643593 31.632902 2.488563
2005-05-19 08:07:49 51°16.63 2°40.257 11.696 3.643488 31.630539 2.454853
2005-05-19 08:07:54 51°16.632 2°40.263 11.6932 3.643804 31.630899 2.387435
2005-05-19 08:07:59 51°16.635 2°40.27 11.6907 3.643699 31.628536 2.353725
2005-05-19 08:08:04 51°16.637 2°40.276 11.6937 3.644015 31.630914 2.252597
2005-05-19 08:08:09 51°16.639 2°40.283 11.6951 3.644015 31.630914 2.252597
2005-05-19 08:08:14 51°16.641 2°40.289 11.6934 3.644226 31.632275 2.320016
2005-05-19 08:08:19 51°16.643 2°40.296 11.6914 3.644226 31.632947 2.320016
2005-05-19 08:08:23 51°16.644 2°40.301 11.6904 3.64412 31.631258 2.353725
2005-05-19 08:08:28 51°16.646 2°40.308 11.693 3.644331 31.632619 2.387435
2005-05-19 08:08:33 51°16.647 2°40.313 11.6927 3.644226 31.631602 2.252597
2005-05-19 08:08:39 51°16.649 2°40.321 11.6913 3.644226 31.631602 2.252597
2005-05-19 08:08:44 51°16.651 2°40.326 11.6944 3.644226 31.630257 2.320016
2005-05-19 08:08:49 51°16.652 2°40.332 11.6876 3.644436 31.630945 2.353725
2005-05-19 08:08:54 51°16.654 2°40.337 11.6968 3.644647 31.633651 2.320016
2005-05-19 08:08:59 51°16.655 2°40.342 11.6884 3.644436 31.63229 2.353725
2005-05-19 08:09:04 51°16.656 2°40.347 11.6846 3.644331 31.632619 2.454853
2005-05-19 08:09:09 51°16.658 2°40.353 11.6833 3.644331 31.632619 2.454853
2005-05-19 08:09:14 51°16.659 2°40.358 11.6871 3.644542 31.633979 2.454853
2005-05-19 08:09:18 51°16.66 2°40.362 11.6816 3.644542 31.632634 2.387435
2005-05-19 08:09:23 51°16.661 2°40.367 11.682 3.644331 31.632619 2.421144
2005-05-19 08:09:29 51°16.662 2°40.374 11.6823 3.644542 31.635325 2.421144
2005-05-19 08:09:32 51°16.662 2°40.378 11.6838 3.644542 31.634652 2.387435
2005-05-19 08:09:39 51°16.662 2°40.388 11.6796 3.644542 31.634652 2.387435
2005-05-19 08:09:44 51°16.662 2°40.394 11.6805 3.644331 31.63531 2.387435
2005-05-19 08:09:49 51°16.66 2°40.402 11.6854 3.644331 31.636655 2.353725
2005-05-19 08:09:54 51°16.659 2°40.409 11.6842 3.644015 31.635623 2.454853
2005-05-19 08:09:59 51°16.656 2°40.416 11.6838 3.64391 31.635279 2.387435
2005-05-19 08:10:04 51°16.653 2°40.421 11.6811 3.644015 31.636969 2.387435
2005-05-19 08:10:09 51°16.65 2°40.426 11.6801 3.644015 31.636969 2.387435
2005-05-19 08:10:13 51°16.647 2°40.43 11.6778 3.64412 31.637986 2.488563
2005-05-19 08:10:19 51°16.641 2°40.434 11.6737 3.64412 31.637313 2.488563
2005-05-19 08:10:24 51°16.637 2°40.436 11.6702 3.64412 31.637313 2.488563
2005-05-19 08:10:29 51°16.632 2°40.438 11.6718 3.644436 31.639018 2.421144
2005-05-19 08:10:34 51°16.627 2°40.438 11.6661 3.644226 31.636984 2.387435
2005-05-19 08:10:39 51°16.622 2°40.438 11.6643 3.644226 31.636984 2.387435
2005-05-19 08:10:43 51°16.617 2°40.437 11.662 3.644436 31.640364 2.555982
2005-05-19 08:10:49 51°16.611 2°40.435 11.658 3.644542 31.641381 2.454853
2005-05-19 08:10:54 51°16.605 2°40.433 11.6573 3.644436 31.643056 2.488563
2005-05-19 08:10:59 51°16.599 2°40.43 11.6577 3.644331 31.644732 2.421144
2005-05-19 08:11:04 51°16.593 2°40.427 11.6553 3.64412 31.645391 2.421144
2005-05-19 08:11:09 51°16.586 2°40.423 11.6545 3.64412 31.645391 2.421144
2005-05-19 08:11:14 51°16.581 2°40.42 11.6555 3.64412 31.648084 2.353725
2005-05-19 08:11:19 51°16.575 2°40.417 11.6541 3.64412 31.650778 2.387435
2005-05-19 08:11:23 51°16.57 2°40.413 11.6505 3.644015 31.652455 2.320016
2005-05-19 08:11:29 51°16.564 2°40.409 11.6496 3.644015 31.65515 2.286306
2005-05-19 08:11:34 51°16.558 2°40.405 11.6506 3.644121 31.656168 2.252597
2005-05-19 08:11:39 51°16.552 2°40.401 11.6508 3.644121 31.656168 2.252597
2005-05-19 08:11:43 51°16.547 2°40.397 11.6532 3.64391 31.656828 2.185178
2005-05-19 08:11:49 51°16.541 2°40.392 11.6484 3.644015 31.658519 2.252597
2005-05-19 08:11:54 51°16.533 2°40.387 11.6495 3.64391 31.658176 2.218888
2005-05-19 08:11:59 51°16.527 2°40.383 11.6509 3.643699 31.656814 2.252597
2005-05-19 08:12:04 51°16.521 2°40.379 11.6496 3.643594 31.657145 2.252597
2005-05-19 08:12:09 51°16.516 2°40.375 11.6497 3.643594 31.657145 2.252597
2005-05-19 08:12:13 51°16.511 2°40.372 11.6492 3.642962 31.653734 2.286306
2005-05-19 08:12:19 51°16.504 2°40.367 11.6478 3.643594 31.660515 2.252597
2005-05-19 08:12:24 51°16.498 2°40.364 11.6505 3.643278 31.657461 2.421144
2005-05-19 08:12:29 51°16.492 2°40.36 11.6523 3.643172 31.656444 2.353725
2005-05-19 08:12:33 51°16.487 2°40.357 11.6546 3.643067 31.6561 2.286306
2005-05-19 08:12:39 51°16.48 2°40.353 11.6521 3.643067 31.6561 2.286306
2005-05-19 08:12:44 51°16.474 2°40.349 11.6552 3.642856 31.654064 2.286306
2005-05-19 08:12:49 51°16.468 2°40.345 11.6522 3.642962 31.655082 2.320016
2005-05-19 08:12:54 51°16.461 2°40.341 11.6564 3.642856 31.654738 2.252597
2005-05-19 08:12:59 51°16.455 2°40.337 11.6532 3.64254 31.651685 2.252597
2005-05-19 08:13:04 51°16.449 2°40.333 11.6515 3.642645 31.652029 2.387435
2005-05-19 08:13:09 51°16.443 2°40.329 11.6592 3.642645 31.652029 2.387435
2005-05-19 08:13:14 51°16.437 2°40.325 11.6583 3.642645 31.650681 2.286306
2005-05-19 08:13:19 51°16.429 2°40.32 11.66 3.64254 31.648989 2.185178
2005-05-19 08:13:23 51°16.423 2°40.316 11.66 3.642645 31.649333 2.286306
2005-05-19 08:13:29 51°16.415 2°40.31 11.6665 3.64254 31.647642 2.320016
2005-05-19 08:13:33 51°16.409 2°40.306 11.6666 3.642435 31.64595 2.218888
2005-05-19 08:13:39 51°16.398 2°40.299 11.6676 3.642435 31.64595 2.218888
2005-05-19 08:13:44 51°16.391 2°40.294 11.67 3.642435 31.646624 2.320016
2005-05-19 08:13:49 51°16.382 2°40.289 11.6723 3.642224 31.642568 2.320016
2005-05-19 08:13:53 51°16.375 2°40.284 11.6792 3.642224 31.642568 2.252597
2005-05-19 08:13:59 51°16.365 2°40.278 11.676 3.642013 31.639859 2.320016
2005-05-19 08:14:04 51°16.357 2°40.272 11.6803 3.642013 31.637165 2.387435
2005-05-19 08:14:09 51°16.35 2°40.268 11.6689 3.642013 31.637165 2.387435
2005-05-19 08:14:14 51°16.343 2°40.263 11.6805 3.642435 31.638541 2.218888
2005-05-19 08:14:19 51°16.336 2°40.259 11.6793 3.642013 31.632452 2.353725
2005-05-19 08:14:24 51°16.33 2°40.256 11.682 3.642224 31.632467 2.353725
2005-05-19 08:14:29 51°16.325 2°40.253 11.6721 3.642224 31.629101 2.320016
2005-05-19 08:14:34 51°16.32 2°40.249 11.6699 3.642118 31.627411 2.286306
2005-05-19 08:14:39 51°16.314 2°40.246 11.6765 3.642118 31.627411 2.286306
2005-05-19 08:14:44 51°16.309 2°40.244 11.6815 3.642224 31.627082 2.353725
2005-05-19 08:14:49 51°16.305 2°40.242 11.6758 3.641802 31.62436 2.387435
2005-05-19 08:14:53 51°16.301 2°40.24 11.6805 3.641802 31.622341 2.454853
2005-05-19 08:14:59 51°16.296 2°40.238 11.679 3.641908 31.619995 2.387435
2005-05-19 08:15:03 51°16.293 2°40.237 11.6793 3.641591 31.618962 2.488563
2005-05-19 08:15:09 51°16.29 2°40.237 11.6836 3.641591 31.618962 2.488563
2005-05-19 08:15:13 51°16.288 2°40.237 11.6809 3.641381 31.620291 2.488563
2005-05-19 08:15:19 51°16.286 2°40.237 11.6877 3.64117 31.615566 2.522272
2005-05-19 08:15:23 51°16.286 2°40.238 11.689 3.641065 31.614549 2.387435
2005-05-19 08:15:29 51°16.285 2°40.239 11.6881 3.640959 31.612187 2.387435
2005-05-19 08:15:34 51°16.284 2°40.24 11.6887 3.640854 31.61117 2.488563
2005-05-19 08:15:39 51°16.284 2°40.242 11.6889 3.640854 31.61117 2.488563
2005-05-19 08:15:44 51°16.283 2°40.243 11.694 3.640959 31.612187 2.454853
2005-05-19 08:15:49 51°16.283 2°40.244 11.6955 3.640854 31.61117 2.454853
2005-05-19 08:15:54 51°16.282 2°40.246 11.693 3.641065 31.611187 2.421144
2005-05-19 08:15:59 51°16.282 2°40.248 11.6899 3.64117 31.610859 2.421144
2005-05-19 08:16:03 51°16.281 2°40.249 11.6902 3.640959 31.606136 2.454853
2005-05-19 08:16:09 51°16.281 2°40.251 11.6942 3.640959 31.606136 2.454853
2005-05-19 08:16:13 51°16.281 2°40.253 11.6896 3.641275 31.609186 2.387435
2005-05-19 08:16:19 51°16.281 2°40.255 11.6889 3.641381 31.60953 2.421144
2005-05-19 08:16:23 51°16.281 2°40.257 11.692 3.641381 31.606169 2.421144
2005-05-19 08:16:29 51°16.281 2°40.259 11.7 3.641591 31.606186 2.387435
2005-05-19 08:16:34 51°16.281 2°40.262 11.6903 3.641381 31.605497 2.488563
2005-05-19 08:16:39 51°16.281 2°40.264 11.6972 3.641381 31.605497 2.488563
2005-05-19 08:16:43 51°16.281 2°40.266 11.6947 3.641486 31.60517 2.522272
2005-05-19 08:16:49 51°16.281 2°40.269 11.6965 3.641591 31.606186 2.522272
2005-05-19 08:16:53 51°16.281 2°40.271 11.6907 3.641486 31.607186 2.522272
2005-05-19 08:16:59 51°16.282 2°40.275 11.6903 3.64117 31.602792 2.555982
2005-05-19 08:17:03 51°16.282 2°40.277 11.6946 3.641486 31.603825 2.555982
2005-05-19 08:17:09 51°16.282 2°40.28 11.6936 3.641486 31.603825 2.555982
2005-05-19 08:17:13 51°16.283 2°40.282 11.6884 3.641381 31.603481 2.758238
2005-05-19 08:17:19 51°16.283 2°40.286 11.6906 3.641381 31.602809 2.690819
2005-05-19 08:17:23 51°16.284 2°40.288 11.6914 3.641381 31.603481 2.758238
2005-05-19 08:17:29 51°16.284 2°40.291 11.6937 3.64117 31.601448 2.926785
2005-05-19 08:17:34 51°16.285 2°40.294 11.6966 3.641275 31.602464 2.893076
2005-05-19 08:17:39 51°16.285 2°40.297 11.6968 3.641275 31.602464 2.893076
2005-05-19 08:17:43 51°16.286 2°40.3 11.698 3.641381 31.602137 3.129042
2005-05-19 08:17:49 51°16.287 2°40.303 11.6913 3.641381 31.602809 3.027913
2005-05-19 08:17:53 51°16.288 2°40.306 11.6943 3.64117 31.603464 3.129042
2005-05-19 08:17:58 51°16.289 2°40.309 11.6972 3.641064 31.602447 2.960494
2005-05-19 08:18:04 51°16.29 2°40.313 11.7049 3.64117 31.602792 3.263879
2005-05-19 08:18:09 51°16.29 2°40.316 11.699 3.64117 31.602792 3.263879
2005-05-19 08:18:13 51°16.291 2°40.319 11.6985 3.641381 31.602137 3.095332
2005-05-19 08:18:19 51°16.293 2°40.323 11.7005 3.641486 31.602481 3.129042
2005-05-19 08:18:23 51°16.293 2°40.326 11.7018 3.641275 31.600448 3.129042
2005-05-19 08:18:29 51°16.295 2°40.329 11.7037 3.64117 31.600776 3.19646
2005-05-19 08:18:34 51°16.296 2°40.332 11.6976 3.64138 31.601465 3.19646